Observation data for Stinnett on 06/14/2019      Previous  Date  Next       Current Mesonet Observations  Soil Data  Daily Summary Page  Observations in Plain Language
KST3 140500Z 17009KT 18/15 A3006 RMK A01 T01840150  RH  080%=      5-min Rain = 0
KST3 140501Z 16009KT 18/15 A3005 RMK A01 T01840149  RH  080%=      5-min Rain = 0
KST3 140502Z 15008KT 18/15 A3005 RMK A01 T01840149  RH  080%=      5-min Rain = 0
KST3 140503Z 14008KT 18/15 A3005 RMK A01 T01840149  RH  080%=      5-min Rain = 0
KST3 140504Z 14009KT 18/15 A3004 RMK A01 T01840148  RH  079%=      5-min Rain = 0
KST3 140505Z 14008KT 19/15 A3004 RMK A01 T01850148  RH  079%=      5-min Rain = 0
KST3 140506Z 14009KT 19/15 A3004 RMK A01 T01850147  RH  078%=      5-min Rain = 0.01
KST3 140507Z 13009KT 19/15 A3004 RMK A01 T01860148  RH  079%=      5-min Rain = 0
KST3 140508Z 13009KT 18/15 A3004 RMK A01 T01840153  RH  082%=      5-min Rain = 0
KST3 140509Z 14008KT 18/16 A3004 RMK A01 T01820155  RH  084%=      5-min Rain = 0
KST3 140510Z 15009KT 18/16 A3004 RMK A01 T01800156  RH  086%=      5-min Rain = 0
KST3 140511Z 14010KT 18/16 A3004 RMK A01 T01800156  RH  086%=      5-min Rain = 0
KST3 140512Z 14010KT 18/16 A3004 RMK A01 T01800155  RH  086%=      5-min Rain = 0
KST3 140513Z 14009KT 18/16 A3004 RMK A01 T01800155  RH  085%=      5-min Rain = 0
KST3 140514Z 14012KT 18/16 A3004 RMK A01 T01800155  RH  085%=      5-min Rain = 0
KST3 140515Z 15013KT 18/16 A3004 RMK A01 T01810155  RH  085%=      5-min Rain = 0
KST3 140516Z 15013KT 18/16 A3004 RMK A01 T01820155  RH  084%=      5-min Rain = 0
KST3 140517Z 15014KT 18/15 A3004 RMK A01 T01820154  RH  084%=      5-min Rain = 0
KST3 140518Z 15014G19KT 18/15 A3004 RMK A01 T01820154  RH  084%=      5-min Rain = 0
KST3 140519Z 15013KT 18/15 A3004 RMK A01 T01820152  RH  083%=      5-min Rain = 0
KST3 140520Z 14015KT 18/15 A3004 RMK A01 T01830152  RH  082%=      5-min Rain = 0
KST3 140521Z 14012KT 18/15 A3004 RMK A01 T01830152  RH  082%=      5-min Rain = 0
KST3 140522Z 14012KT 18/15 A3004 RMK A01 T01830152  RH  082%=      5-min Rain = 0
KST3 140523Z 14015KT 18/15 A3004 RMK A01 T01830151  RH  081%=      5-min Rain = 0
KST3 140524Z 14013KT 18/15 A3004 RMK A01 T01830151  RH  082%=      5-min Rain = 0
KST3 140525Z 14012KT 18/15 A3004 RMK A01 T01820152  RH  082%=      5-min Rain = 0
KST3 140526Z 14011KT 18/15 A3004 RMK A01 T01810152  RH  083%=      5-min Rain = 0
KST3 140527Z 14011KT 18/15 A3004 RMK A01 T01810152  RH  083%=      5-min Rain = 0
KST3 140528Z 13011KT 18/15 A3003 RMK A01 T01800151  RH  083%=      5-min Rain = 0
KST3 140529Z 13012KT 18/15 A3003 RMK A01 T01800150  RH  083%=      5-min Rain = 0
KST3 140530Z 13010KT 18/15 A3003 RMK A01 T01800150  RH  083%=      5-min Rain = 0
KST3 140531Z 13009KT 18/15 A3003 RMK A01 T01800150  RH  083%=      5-min Rain = 0
KST3 140532Z 13010KT 18/15 A3003 RMK A01 T01790149  RH  082%=      5-min Rain = 0
KST3 140533Z 12011KT 18/15 A3003 RMK A01 T01790148  RH  082%=      5-min Rain = 0
KST3 140534Z 12010KT 18/15 A3003 RMK A01 T01800148  RH  082%=      5-min Rain = 0
KST3 140535Z 12010KT 18/15 A3003 RMK A01 T01800148  RH  081%=      5-min Rain = 0
KST3 140536Z 12010KT 18/15 A3003 RMK A01 T01800148  RH  081%=      5-min Rain = 0
KST3 140537Z 12010KT 18/15 A3003 RMK A01 T01800148  RH  082%=      5-min Rain = 0
KST3 140538Z 11011KT 18/15 A3003 RMK A01 T01800149  RH  082%=      5-min Rain = 0
KST3 140539Z 11010KT 18/15 A3002 RMK A01 T01790149  RH  082%=      5-min Rain = 0
KST3 140540Z 11010KT 18/15 A3002 RMK A01 T01790150  RH  083%=      5-min Rain = 0
KST3 140541Z 12012KT 18/15 A3002 RMK A01 T01780148  RH  082%=      5-min Rain = 0
KST3 140542Z 11013KT 18/15 A3002 RMK A01 T01790147  RH  082%=      5-min Rain = 0
KST3 140543Z 11014KT 18/15 A3002 RMK A01 T01800147  RH  081%=      5-min Rain = 0
KST3 140544Z 11014KT 18/15 A3001 RMK A01 T01810147  RH  080%=      5-min Rain = 0
KST3 140545Z 11012KT 18/15 A3001 RMK A01 T01810146  RH  080%=      5-min Rain = 0
KST3 140546Z 10011KT 18/15 A3001 RMK A01 T01810147  RH  081%=      5-min Rain = 0
KST3 140547Z 10012KT 18/15 A3001 RMK A01 T01810148  RH  081%=      5-min Rain = 0
KST3 140548Z 10011KT 18/15 A3001 RMK A01 T01800149  RH  082%=      5-min Rain = 0
KST3 140549Z 11011KT 18/15 A3002 RMK A01 T01790149  RH  083%=      5-min Rain = 0
KST3 140550Z 12009KT 18/15 A3002 RMK A01 T01790149  RH  083%=      5-min Rain = 0
KST3 140551Z 13009KT 18/15 A3002 RMK A01 T01790149  RH  082%=      5-min Rain = 0
KST3 140552Z 13009KT 18/15 A3002 RMK A01 T01790148  RH  082%=      5-min Rain = 0
KST3 140553Z 13008KT 18/15 A3002 RMK A01 T01790148  RH  082%=      5-min Rain = 0
KST3 140554Z 12008KT 18/15 A3001 RMK A01 T01800149  RH  082%=      5-min Rain = 0
KST3 140555Z 12009KT 18/15 A3001 RMK A01 T01790150  RH  083%=      5-min Rain = 0
KST3 140556Z 11011KT 18/15 A3001 RMK A01 T01790149  RH  083%=      5-min Rain = 0
KST3 140557Z 11009KT 18/15 A3001 RMK A01 T01790150  RH  083%=      5-min Rain = 0
KST3 140558Z 10009KT 18/15 A30 RMK A01 T01790151  RH  084%=      5-min Rain = 0
KST3 140559Z 10010KT 18/15 A30 RMK A01 T01780151  RH  085%=      5-min Rain = 0
KST3 140600Z 09010KT 18/15 A30 RMK A01 T01770151  RH  085%=      5-min Rain = 0
KST3 140601Z 09010KT 18/15 A30 RMK A01 T01770151  RH  085%=      5-min Rain = 0
KST3 140602Z 09011KT 18/15 A30 RMK A01 T01760152  RH  085%=      5-min Rain = 0
KST3 140603Z 10011KT 18/15 A30 RMK A01 T01760151  RH  085%=      5-min Rain = 0
KST3 140604Z 11011KT 18/15 A30 RMK A01 T01760151  RH  086%=      5-min Rain = 0
KST3 140605Z 11011KT 18/15 A2999 RMK A01 T01750152  RH  086%=      5-min Rain = 0
KST3 140606Z 12011KT 18/15 A30 RMK A01 T01750151  RH  086%=      5-min Rain = 0
KST3 140607Z 12009KT 18/15 A30 RMK A01 T01750150  RH  085%=      5-min Rain = 0
KST3 140608Z 13010KT 18/15 A2999 RMK A01 T01750149  RH  084%=      5-min Rain = 0
KST3 140609Z 14010KT 18/15 A2999 RMK A01 T01760149  RH  084%=      5-min Rain = 0
KST3 140610Z 14011KT 18/15 A2999 RMK A01 T01770148  RH  083%=      5-min Rain = 0
KST3 140611Z 14011KT 18/15 A2999 RMK A01 T01770146  RH  082%=      5-min Rain = 0
KST3 140612Z 14010KT 18/15 A2998 RMK A01 T01780147  RH  082%=      5-min Rain = 0
KST3 140613Z 14011KT 18/15 A2998 RMK A01 T01790147  RH  082%=      5-min Rain = 0
KST3 140614Z 13011KT 18/15 A2998 RMK A01 T01780146  RH  081%=      5-min Rain = 0
KST3 140615Z 13011KT 18/15 A2998 RMK A01 T01790145  RH  081%=      5-min Rain = 0
KST3 140616Z 13012KT 18/14 A2998 RMK A01 T01790144  RH  080%=      5-min Rain = 0
KST3 140617Z 13010KT 18/15 A2998 RMK A01 T01800145  RH  080%=      5-min Rain = 0
KST3 140618Z 13009KT 18/15 A2998 RMK A01 T01800146  RH  080%=      5-min Rain = 0
KST3 140619Z 13010KT 18/15 A2998 RMK A01 T01800145  RH  080%=      5-min Rain = 0
KST3 140620Z 12009KT 18/15 A2998 RMK A01 T01800145  RH  080%=      5-min Rain = 0
KST3 140621Z 12007KT 18/15 A2998 RMK A01 T01790146  RH  081%=      5-min Rain = 0
KST3 140622Z 11009KT 18/15 A2998 RMK A01 T01790147  RH  082%=      5-min Rain = 0
KST3 140623Z 11009KT 18/15 A2998 RMK A01 T01780147  RH  082%=      5-min Rain = 0
KST3 140624Z 11010KT 18/15 A2999 RMK A01 T01770148  RH  083%=      5-min Rain = 0
KST3 140625Z 11010KT 18/15 A2999 RMK A01 T01760148  RH  084%=      5-min Rain = 0
KST3 140626Z 10009KT 18/15 A2999 RMK A01 T01750149  RH  084%=      5-min Rain = 0
KST3 140627Z 10009KT 18/15 A2999 RMK A01 T01750150  RH  085%=      5-min Rain = 0
KST3 140628Z 10009KT 17/15 A2999 RMK A01 T01740149  RH  086%=      5-min Rain = 0
KST3 140629Z 10009KT 17/15 A2999 RMK A01 T01730150  RH  086%=      5-min Rain = 0
KST3 140630Z 10008KT 17/15 A30 RMK A01 T01730149  RH  086%=      5-min Rain = 0
KST3 140631Z 09007KT 17/15 A30 RMK A01 T01730150  RH  087%=      5-min Rain = 0
KST3 140632Z 09008KT 17/15 A30 RMK A01 T01730150  RH  086%=      5-min Rain = 0
KST3 140633Z 08007KT 17/15 A30 RMK A01 T01720149  RH  086%=      5-min Rain = 0
KST3 140634Z 08007KT 17/15 A3001 RMK A01 T01720149  RH  086%=      5-min Rain = 0
KST3 140635Z 08007KT 17/15 A3001 RMK A01 T01720151  RH  087%=      5-min Rain = 0
KST3 140636Z 08007KT 17/15 A3001 RMK A01 T01720151  RH  087%=      5-min Rain = 0
KST3 140637Z 09007KT 17/15 A3001 RMK A01 T01720148  RH  086%=      5-min Rain = 0
KST3 140638Z 10008KT 17/15 A3001 RMK A01 T01730146  RH  084%=      5-min Rain = 0
KST3 140639Z 11008KT 18/14 A30 RMK A01 T01750144  RH  082%=      5-min Rain = 0
KST3 140640Z 12009KT 18/14 A30 RMK A01 T01760142  RH  080%=      5-min Rain = 0
KST3 140641Z 12010KT 18/14 A2999 RMK A01 T01780141  RH  079%=      5-min Rain = 0
KST3 140642Z 12009KT 18/14 A2999 RMK A01 T01800140  RH  078%=      5-min Rain = 0
KST3 140643Z 13009KT 18/14 A2998 RMK A01 T01800141  RH  078%=      5-min Rain = 0
KST3 140644Z 13011KT 18/14 A2998 RMK A01 T01800141  RH  078%=      5-min Rain = 0
KST3 140645Z 13010KT 18/14 A2997 RMK A01 T01800140  RH  077%=      5-min Rain = 0
KST3 140646Z 13011KT 18/14 A2997 RMK A01 T01800139  RH  077%=      5-min Rain = 0
KST3 140647Z 14011KT 18/14 A2997 RMK A01 T01810138  RH  076%=      5-min Rain = 0
KST3 140648Z 14012KT 18/14 A2996 RMK A01 T01810138  RH  076%=      5-min Rain = 0
KST3 140649Z 15011KT 18/14 A2996 RMK A01 T01810139  RH  076%=      5-min Rain = 0
KST3 140650Z 15012KT 18/14 A2996 RMK A01 T01800139  RH  077%=      5-min Rain = 0
KST3 140651Z 16012KT 18/14 A2996 RMK A01 T01800138  RH  076%=      5-min Rain = 0
KST3 140652Z 16013KT 18/14 A2996 RMK A01 T01800139  RH  077%=      5-min Rain = 0
KST3 140653Z 16013KT 18/14 A2996 RMK A01 T01800138  RH  077%=      5-min Rain = 0
KST3 140654Z 16014KT 18/14 A2996 RMK A01 T01800137  RH  076%=      5-min Rain = 0
KST3 140655Z 16015KT 18/14 A2996 RMK A01 T01800135  RH  075%=      5-min Rain = 0
KST3 140656Z 16015KT 18/13 A2996 RMK A01 T01810134  RH  074%=      5-min Rain = 0
KST3 140657Z 17015KT 18/13 A2996 RMK A01 T01820134  RH  073%=      5-min Rain = 0
KST3 140658Z 17014KT 18/13 A2996 RMK A01 T01820134  RH  073%=      5-min Rain = 0
KST3 140659Z 18014KT 18/13 A2996 RMK A01 T01820134  RH  073%=      5-min Rain = 0
KST3 140700Z 18014KT 18/14 A2996 RMK A01 T01820135  RH  074%=      5-min Rain = 0
KST3 140701Z 18015KT 18/13 A2997 RMK A01 T01820133  RH  073%=      5-min Rain = 0
KST3 140702Z 18016KT 18/13 A2996 RMK A01 T01820131  RH  072%=      5-min Rain = 0
KST3 140703Z 18016KT 18/13 A2996 RMK A01 T01830130  RH  071%=      5-min Rain = 0
KST3 140704Z 18015KT 18/13 A2996 RMK A01 T01840130  RH  071%=      5-min Rain = 0
KST3 140705Z 18015KT 18/13 A2996 RMK A01 T01840131  RH  071%=      5-min Rain = 0
KST3 140706Z 18015KT 18/13 A2996 RMK A01 T01840132  RH  072%=      5-min Rain = 0
KST3 140707Z 18016G21KT 18/13 A2996 RMK A01 T01820132  RH  072%=      5-min Rain = 0
KST3 140708Z 18016KT 18/13 A2996 RMK A01 T01820130  RH  072%=      5-min Rain = 0
KST3 140709Z 19018KT 18/13 A2996 RMK A01 T01820129  RH  071%=      5-min Rain = 0
KST3 140710Z 19016KT 18/13 A2996 RMK A01 T01830130  RH  071%=      5-min Rain = 0
KST3 140711Z 19016KT 18/13 A2996 RMK A01 T01830130  RH  071%=      5-min Rain = 0
KST3 140712Z 19014KT 18/13 A2996 RMK A01 T01830129  RH  071%=      5-min Rain = 0
KST3 140713Z 19013KT 18/13 A2996 RMK A01 T01820130  RH  072%=      5-min Rain = 0
KST3 140714Z 19013KT 18/13 A2996 RMK A01 T01810130  RH  072%=      5-min Rain = 0
KST3 140715Z 18014KT 18/13 A2996 RMK A01 T01810130  RH  072%=      5-min Rain = 0
KST3 140716Z 18014KT 18/13 A2996 RMK A01 T01810130  RH  072%=      5-min Rain = 0
KST3 140717Z 18014KT 18/13 A2996 RMK A01 T01800129  RH  072%=      5-min Rain = 0
KST3 140718Z 18013G18KT 18/13 A2997 RMK A01 T01810130  RH  072%=      5-min Rain = 0
KST3 140719Z 18013KT 18/13 A2997 RMK A01 T01810129  RH  072%=      5-min Rain = 0
KST3 140720Z 18015KT 18/13 A2997 RMK A01 T01810128  RH  072%=      5-min Rain = 0
KST3 140721Z 19014KT 18/13 A2997 RMK A01 T01810128  RH  071%=      5-min Rain = 0
KST3 140722Z 19012KT 18/13 A2997 RMK A01 T01820128  RH  071%=      5-min Rain = 0
KST3 140723Z 19013KT 18/13 A2997 RMK A01 T01820128  RH  071%=      5-min Rain = 0
KST3 140724Z 18012KT 18/13 A2997 RMK A01 T01820128  RH  071%=      5-min Rain = 0
KST3 140725Z 18014KT 18/13 A2997 RMK A01 T01810128  RH  071%=      5-min Rain = 0
KST3 140726Z 19013KT 18/13 A2997 RMK A01 T01810128  RH  071%=      5-min Rain = 0
KST3 140727Z 19013KT 18/13 A2997 RMK A01 T01810128  RH  071%=      5-min Rain = 0
KST3 140728Z 19013KT 18/13 A2997 RMK A01 T01810127  RH  071%=      5-min Rain = 0
KST3 140729Z 19015KT 18/13 A2997 RMK A01 T01810128  RH  071%=      5-min Rain = 0
KST3 140730Z 18015KT 18/13 A2997 RMK A01 T01810127  RH  071%=      5-min Rain = 0
KST3 140731Z 18015KT 18/13 A2997 RMK A01 T01820127  RH  070%=      5-min Rain = 0
KST3 140732Z 18015KT 18/13 A2997 RMK A01 T01820127  RH  070%=      5-min Rain = 0
KST3 140733Z 18016KT 18/13 A2997 RMK A01 T01820127  RH  070%=      5-min Rain = 0
KST3 140734Z 18013KT 18/13 A2997 RMK A01 T01830127  RH  070%=      5-min Rain = 0
KST3 140735Z 18012KT 18/13 A2997 RMK A01 T01830129  RH  071%=      5-min Rain = 0
KST3 140736Z 18015KT 18/13 A2997 RMK A01 T01820128  RH  071%=      5-min Rain = 0
KST3 140737Z 18016KT 18/13 A2997 RMK A01 T01820127  RH  070%=      5-min Rain = 0
KST3 140738Z 18016KT 18/13 A2997 RMK A01 T01830127  RH  070%=      5-min Rain = 0
KST3 140739Z 17015KT 18/13 A2997 RMK A01 T01840127  RH  070%=      5-min Rain = 0
KST3 140740Z 17015G20KT 18/13 A2997 RMK A01 T01840127  RH  069%=      5-min Rain = 0
KST3 140741Z 17018KT 18/13 A2996 RMK A01 T01840127  RH  069%=      5-min Rain = 0
KST3 140742Z 18017KT 19/13 A2996 RMK A01 T01860127  RH  068%=      5-min Rain = 0
KST3 140743Z 17016G21KT 19/13 A2996 RMK A01 T01860127  RH  068%=      5-min Rain = 0
KST3 140744Z 17018KT 19/13 A2996 RMK A01 T01870127  RH  068%=      5-min Rain = 0
KST3 140745Z 18017G22KT 19/13 A2996 RMK A01 T01870126  RH  068%=      5-min Rain = 0
KST3 140746Z 18018KT 19/13 A2996 RMK A01 T01880127  RH  068%=      5-min Rain = 0
KST3 140747Z 17018KT 19/13 A2996 RMK A01 T01880127  RH  068%=      5-min Rain = 0
KST3 140748Z 18017KT 19/13 A2996 RMK A01 T01880128  RH  068%=      5-min Rain = 0
KST3 140749Z 17017KT 19/13 A2996 RMK A01 T01870128  RH  068%=      5-min Rain = 0
KST3 140750Z 17019KT 19/13 A2996 RMK A01 T01880128  RH  068%=      5-min Rain = 0
KST3 140751Z 17018G23KT 19/13 A2996 RMK A01 T01880128  RH  068%=      5-min Rain = 0
KST3 140752Z 17015KT 19/13 A2996 RMK A01 T01870128  RH  068%=      5-min Rain = 0
KST3 140753Z 17014KT 19/13 A2996 RMK A01 T01870129  RH  069%=      5-min Rain = 0
KST3 140754Z 17013KT 19/13 A2996 RMK A01 T01850130  RH  070%=      5-min Rain = 0
KST3 140755Z 18014KT 18/13 A2996 RMK A01 T01840130  RH  071%=      5-min Rain = 0
KST3 140756Z 17015KT 18/13 A2996 RMK A01 T01830129  RH  070%=      5-min Rain = 0
KST3 140757Z 17015KT 18/13 A2996 RMK A01 T01840129  RH  070%=      5-min Rain = 0
KST3 140758Z 18015KT 18/13 A2996 RMK A01 T01840129  RH  070%=      5-min Rain = 0
KST3 140759Z 17014KT 18/13 A2996 RMK A01 T01840129  RH  070%=      5-min Rain = 0
KST3 140800Z 17016KT 18/13 A2996 RMK A01 T01840129  RH  071%=      5-min Rain = 0
KST3 140801Z 17012KT 18/13 A2996 RMK A01 T01840129  RH  070%=      5-min Rain = 0
KST3 140802Z 17014KT 18/13 A2996 RMK A01 T01840130  RH  071%=      5-min Rain = 0
KST3 140803Z 17012KT 18/13 A2996 RMK A01 T01830130  RH  071%=      5-min Rain = 0
KST3 140804Z 17012KT 18/13 A2996 RMK A01 T01830130  RH  071%=      5-min Rain = 0
KST3 140805Z 17013KT 18/13 A2996 RMK A01 T01820130  RH  072%=      5-min Rain = 0
KST3 140806Z 17013KT 18/13 A2996 RMK A01 T01820131  RH  072%=      5-min Rain = 0
KST3 140807Z 17013KT 18/13 A2996 RMK A01 T01810130  RH  072%=      5-min Rain = 0
KST3 140808Z 17015G20KT 18/13 A2996 RMK A01 T01810130  RH  072%=      5-min Rain = 0
KST3 140809Z 16015KT 18/13 A2996 RMK A01 T01810130  RH  072%=      5-min Rain = 0
KST3 140810Z 17016G21KT 18/13 A2995 RMK A01 T01820130  RH  072%=      5-min Rain = 0
KST3 140811Z 17017KT 18/13 A2995 RMK A01 T01820130  RH  072%=      5-min Rain = 0
KST3 140812Z 17016G21KT 18/13 A2995 RMK A01 T01820130  RH  072%=      5-min Rain = 0
KST3 140813Z 16016KT 18/13 A2995 RMK A01 T01820131  RH  072%=      5-min Rain = 0
KST3 140814Z 17017KT 18/13 A2995 RMK A01 T01820130  RH  072%=      5-min Rain = 0
KST3 140815Z 16015KT 18/13 A2995 RMK A01 T01820131  RH  072%=      5-min Rain = 0
KST3 140816Z 17015KT 18/13 A2995 RMK A01 T01810131  RH  072%=      5-min Rain = 0
KST3 140817Z 17014KT 18/13 A2995 RMK A01 T01810131  RH  073%=      5-min Rain = 0
KST3 140818Z 17013KT 18/13 A2995 RMK A01 T01800132  RH  073%=      5-min Rain = 0
KST3 140819Z 17014KT 18/13 A2995 RMK A01 T01790132  RH  074%=      5-min Rain = 0
KST3 140820Z 17012KT 18/13 A2995 RMK A01 T01790132  RH  074%=      5-min Rain = 0
KST3 140821Z 17013G19KT 18/13 A2995 RMK A01 T01790133  RH  074%=      5-min Rain = 0
KST3 140822Z 17016KT 18/13 A2995 RMK A01 T01790132  RH  074%=      5-min Rain = 0
KST3 140823Z 17014KT 18/13 A2995 RMK A01 T01790133  RH  074%=      5-min Rain = 0
KST3 140824Z 17013KT 18/13 A2995 RMK A01 T01790133  RH  075%=      5-min Rain = 0
KST3 140825Z 16013KT 18/13 A2995 RMK A01 T01780134  RH  075%=      5-min Rain = 0
KST3 140826Z 17012KT 18/13 A2995 RMK A01 T01780134  RH  075%=      5-min Rain = 0
KST3 140827Z 17014KT 18/13 A2995 RMK A01 T01770134  RH  076%=      5-min Rain = 0
KST3 140828Z 17013KT 18/13 A2995 RMK A01 T01770134  RH  076%=      5-min Rain = 0
KST3 140829Z 18013G18KT 18/14 A2995 RMK A01 T01770135  RH  076%=      5-min Rain = 0
KST3 140830Z 18013G18KT 18/14 A2995 RMK A01 T01770135  RH  077%=      5-min Rain = 0
KST3 140831Z 18012KT 18/14 A2995 RMK A01 T01760135  RH  077%=      5-min Rain = 0
KST3 140832Z 18012KT 18/14 A2995 RMK A01 T01760136  RH  077%=      5-min Rain = 0
KST3 140833Z 18013KT 18/14 A2995 RMK A01 T01750136  RH  078%=      5-min Rain = 0
KST3 140834Z 18013KT 17/14 A2995 RMK A01 T01740136  RH  078%=      5-min Rain = 0
KST3 140835Z 18013KT 17/14 A2995 RMK A01 T01740136  RH  078%=      5-min Rain = 0
KST3 140836Z 18013KT 17/14 A2995 RMK A01 T01740137  RH  079%=      5-min Rain = 0
KST3 140837Z 18016KT 17/14 A2995 RMK A01 T01740136  RH  079%=      5-min Rain = 0
KST3 140838Z 18015KT 17/14 A2995 RMK A01 T01740136  RH  078%=      5-min Rain = 0
KST3 140839Z 18014G20KT 17/14 A2995 RMK A01 T01740137  RH  079%=      5-min Rain = 0
KST3 140840Z 18014KT 17/14 A2995 RMK A01 T01730137  RH  079%=      5-min Rain = 0
KST3 140841Z 18015KT 17/14 A2995 RMK A01 T01730137  RH  079%=      5-min Rain = 0
KST3 140842Z 17015KT 17/14 A2994 RMK A01 T01730137  RH  079%=      5-min Rain = 0
KST3 140843Z 17016KT 17/14 A2994 RMK A01 T01730137  RH  079%=      5-min Rain = 0
KST3 140844Z 17016KT 17/14 A2994 RMK A01 T01730136  RH  079%=      5-min Rain = 0
KST3 140845Z 18013KT 17/14 A2994 RMK A01 T01730136  RH  079%=      5-min Rain = 0
KST3 140846Z 17015KT 17/14 A2994 RMK A01 T01730137  RH  079%=      5-min Rain = 0
KST3 140847Z 18015KT 17/14 A2994 RMK A01 T01730137  RH  079%=      5-min Rain = 0
KST3 140848Z 18017KT 17/14 A2994 RMK A01 T01730137  RH  079%=      5-min Rain = 0
KST3 140849Z 17016KT 17/14 A2994 RMK A01 T01730136  RH  079%=      5-min Rain = 0
KST3 140850Z 18014KT 17/14 A2994 RMK A01 T01730137  RH  079%=      5-min Rain = 0
KST3 140851Z 18015KT 17/14 A2994 RMK A01 T01730137  RH  079%=      5-min Rain = 0
KST3 140852Z 18014KT 17/14 A2994 RMK A01 T01730137  RH  079%=      5-min Rain = 0
KST3 140853Z 18013KT 17/14 A2994 RMK A01 T01730137  RH  080%=      5-min Rain = 0
KST3 140854Z 18016KT 17/14 A2993 RMK A01 T01720137  RH  080%=      5-min Rain = 0
KST3 140855Z 17015G20KT 17/14 A2993 RMK A01 T01720137  RH  080%=      5-min Rain = 0
KST3 140856Z 17015KT 17/14 A2993 RMK A01 T01720136  RH  079%=      5-min Rain = 0
KST3 140857Z 17013KT 17/14 A2993 RMK A01 T01730137  RH  079%=      5-min Rain = 0
KST3 140858Z 17014KT 17/14 A2993 RMK A01 T01730137  RH  080%=      5-min Rain = 0
KST3 140859Z 17015KT 17/14 A2993 RMK A01 T01720137  RH  080%=      5-min Rain = 0
KST3 140900Z 18014KT 17/14 A2993 RMK A01 T01720137  RH  080%=      5-min Rain = 0
KST3 140901Z 17014KT 17/14 A2993 RMK A01 T01720137  RH  080%=      5-min Rain = 0
KST3 140902Z 17013KT 17/14 A2993 RMK A01 T01720138  RH  080%=      5-min Rain = 0
KST3 140903Z 17012KT 17/14 A2993 RMK A01 T01710137  RH  080%=      5-min Rain = 0
KST3 140904Z 17015G20KT 17/14 A2993 RMK A01 T01710138  RH  081%=      5-min Rain = 0
KST3 140905Z 18014KT 17/14 A2993 RMK A01 T01710137  RH  080%=      5-min Rain = 0
KST3 140906Z 17013KT 17/14 A2993 RMK A01 T01720138  RH  080%=      5-min Rain = 0
KST3 140907Z 18014KT 17/14 A2993 RMK A01 T01720137  RH  080%=      5-min Rain = 0
KST3 140908Z 18014KT 17/14 A2993 RMK A01 T01720138  RH  080%=      5-min Rain = 0
KST3 140909Z 17015KT 17/14 A2993 RMK A01 T01720137  RH  080%=      5-min Rain = 0
KST3 140910Z 18013KT 17/14 A2993 RMK A01 T01720138  RH  080%=      5-min Rain = 0
KST3 140911Z 18014KT 17/14 A2993 RMK A01 T01720138  RH  081%=      5-min Rain = 0
KST3 140912Z 17013KT 17/14 A2993 RMK A01 T01720138  RH  081%=      5-min Rain = 0
KST3 140913Z 18014KT 17/14 A2993 RMK A01 T01720138  RH  081%=      5-min Rain = 0
KST3 140914Z 18016KT 17/14 A2993 RMK A01 T01710138  RH  081%=      5-min Rain = 0
KST3 140915Z 18014KT 17/14 A2993 RMK A01 T01710138  RH  081%=      5-min Rain = 0
KST3 140916Z 18016G21KT 17/14 A2993 RMK A01 T01710138  RH  081%=      5-min Rain = 0
KST3 140917Z 18015KT 17/14 A2993 RMK A01 T01710138  RH  081%=      5-min Rain = 0
KST3 140918Z 18013KT 17/14 A2993 RMK A01 T01720138  RH  081%=      5-min Rain = 0
KST3 140919Z 18013KT 17/14 A2993 RMK A01 T01710138  RH  081%=      5-min Rain = 0
KST3 140920Z 18013KT 17/14 A2993 RMK A01 T01710139  RH  081%=      5-min Rain = 0
KST3 140921Z 18015KT 17/14 A2993 RMK A01 T01710138  RH  081%=      5-min Rain = 0
KST3 140922Z 18012KT 17/14 A2993 RMK A01 T01700138  RH  081%=      5-min Rain = 0
KST3 140923Z 18013KT 17/14 A2992 RMK A01 T01710138  RH  081%=      5-min Rain = 0
KST3 140924Z 18013KT 17/14 A2992 RMK A01 T01710138  RH  081%=      5-min Rain = 0
KST3 140925Z 18013KT 17/14 A2992 RMK A01 T01710138  RH  081%=      5-min Rain = 0
KST3 140926Z 17013KT 17/14 A2992 RMK A01 T01710138  RH  081%=      5-min Rain = 0
KST3 140927Z 18012KT 17/14 A2992 RMK A01 T01710138  RH  081%=      5-min Rain = 0
KST3 140928Z 18012KT 17/14 A2992 RMK A01 T01720138  RH  081%=      5-min Rain = 0
KST3 140929Z 18013KT 17/14 A2993 RMK A01 T01710138  RH  081%=      5-min Rain = 0
KST3 140930Z 17013KT 17/14 A2993 RMK A01 T01720138  RH  080%=      5-min Rain = 0
KST3 140931Z 18013KT 17/14 A2992 RMK A01 T01730138  RH  080%=      5-min Rain = 0
KST3 140932Z 18013KT 17/14 A2992 RMK A01 T01730138  RH  080%=      5-min Rain = 0
KST3 140933Z 18012KT 17/14 A2992 RMK A01 T01730137  RH  079%=      5-min Rain = 0
KST3 140934Z 18012KT 17/14 A2992 RMK A01 T01740138  RH  079%=      5-min Rain = 0
KST3 140935Z 18013KT 17/14 A2992 RMK A01 T01740138  RH  079%=      5-min Rain = 0
KST3 140936Z 17013KT 17/14 A2992 RMK A01 T01740138  RH  079%=      5-min Rain = 0
KST3 140937Z 17012KT 17/14 A2992 RMK A01 T01730138  RH  080%=      5-min Rain = 0
KST3 140938Z 17012KT 17/14 A2993 RMK A01 T01730138  RH  080%=      5-min Rain = 0
KST3 140939Z 17011KT 17/14 A2992 RMK A01 T01730138  RH  079%=      5-min Rain = 0
KST3 140940Z 17012KT 17/14 A2992 RMK A01 T01730137  RH  079%=      5-min Rain = 0
KST3 140941Z 17014KT 17/14 A2992 RMK A01 T01740137  RH  079%=      5-min Rain = 0
KST3 140942Z 17011G17KT 17/14 A2992 RMK A01 T01740137  RH  079%=      5-min Rain = 0
KST3 140943Z 17013KT 17/14 A2992 RMK A01 T01740137  RH  079%=      5-min Rain = 0
KST3 140944Z 16013KT 17/14 A2992 RMK A01 T01740137  RH  078%=      5-min Rain = 0
KST3 140945Z 17012KT 18/14 A2992 RMK A01 T01750137  RH  078%=      5-min Rain = 0
KST3 140946Z 17013KT 18/14 A2992 RMK A01 T01750136  RH  078%=      5-min Rain = 0
KST3 140947Z 16011KT 18/14 A2992 RMK A01 T01750136  RH  078%=      5-min Rain = 0
KST3 140948Z 16011KT 18/14 A2992 RMK A01 T01750136  RH  078%=      5-min Rain = 0
KST3 140949Z 16011KT 18/14 A2992 RMK A01 T01750137  RH  078%=      5-min Rain = 0
KST3 140950Z 15010G16KT 18/14 A2992 RMK A01 T01750137  RH  078%=      5-min Rain = 0
KST3 140951Z 16013KT 17/14 A2992 RMK A01 T01740137  RH  078%=      5-min Rain = 0
KST3 140952Z 15010KT 17/14 A2992 RMK A01 T01740136  RH  078%=      5-min Rain = 0
KST3 140953Z 16010KT 17/14 A2992 RMK A01 T01740137  RH  079%=      5-min Rain = 0
KST3 140954Z 15010KT 17/14 A2992 RMK A01 T01730137  RH  079%=      5-min Rain = 0
KST3 140955Z 16010KT 17/14 A2992 RMK A01 T01730137  RH  079%=      5-min Rain = 0
KST3 140956Z 16011KT 17/14 A2992 RMK A01 T01730137  RH  079%=      5-min Rain = 0
KST3 140957Z 16010KT 17/14 A2992 RMK A01 T01730137  RH  079%=      5-min Rain = 0
KST3 140958Z 16010KT 17/14 A2992 RMK A01 T01730137  RH  079%=      5-min Rain = 0
KST3 140959Z 16011KT 17/14 A2992 RMK A01 T01730137  RH  079%=      5-min Rain = 0
KST3 141000Z 16010KT 17/14 A2992 RMK A01 T01740138  RH  079%=      5-min Rain = 0
KST3 141001Z 17011KT 17/14 A2992 RMK A01 T01730138  RH  079%=      5-min Rain = 0
KST3 141002Z 17013KT 17/14 A2992 RMK A01 T01740137  RH  079%=      5-min Rain = 0
KST3 141003Z 17012KT 18/14 A2992 RMK A01 T01750138  RH  079%=      5-min Rain = 0
KST3 141004Z 17010KT 18/14 A2992 RMK A01 T01760138  RH  078%=      5-min Rain = 0
KST3 141005Z 17011G16KT 18/14 A2992 RMK A01 T01760138  RH  078%=      5-min Rain = 0
KST3 141006Z 17013KT 18/14 A2992 RMK A01 T01760138  RH  078%=      5-min Rain = 0
KST3 141007Z 17012KT 18/14 A2992 RMK A01 T01770138  RH  078%=      5-min Rain = 0
KST3 141008Z 17011KT 18/14 A2992 RMK A01 T01770138  RH  078%=      5-min Rain = 0
KST3 141009Z 17014G20KT 18/14 A2992 RMK A01 T01780139  RH  078%=      5-min Rain = 0
KST3 141010Z 17015KT 18/14 A2992 RMK A01 T01780139  RH  077%=      5-min Rain = 0
KST3 141011Z 17016KT 18/14 A2992 RMK A01 T01790139  RH  077%=      5-min Rain = 0
KST3 141012Z 17014KT 18/14 A2992 RMK A01 T01800139  RH  077%=      5-min Rain = 0
KST3 141013Z 17014G20KT 18/14 A2992 RMK A01 T01800139  RH  077%=      5-min Rain = 0
KST3 141014Z 17014KT 18/14 A2992 RMK A01 T01800139  RH  077%=      5-min Rain = 0
KST3 141015Z 17018KT 18/14 A2992 RMK A01 T01800139  RH  077%=      5-min Rain = 0
KST3 141016Z 17016KT 18/14 A2992 RMK A01 T01800139  RH  077%=      5-min Rain = 0
KST3 141017Z 17016KT 18/14 A2992 RMK A01 T01800139  RH  077%=      5-min Rain = 0
KST3 141018Z 17016G21KT 18/14 A2992 RMK A01 T01810139  RH  077%=      5-min Rain = 0
KST3 141019Z 17013KT 18/14 A2992 RMK A01 T01810140  RH  077%=      5-min Rain = 0
KST3 141020Z 17014KT 18/14 A2992 RMK A01 T01800140  RH  077%=      5-min Rain = 0
KST3 141021Z 17013KT 18/14 A2992 RMK A01 T01790140  RH  078%=      5-min Rain = 0
KST3 141022Z 17014KT 18/14 A2992 RMK A01 T01780140  RH  078%=      5-min Rain = 0
KST3 141023Z 17013KT 18/14 A2992 RMK A01 T01780140  RH  078%=      5-min Rain = 0
KST3 141024Z 17012KT 18/14 A2992 RMK A01 T01790141  RH  078%=      5-min Rain = 0
KST3 141025Z 17011KT 18/14 A2992 RMK A01 T01770140  RH  079%=      5-min Rain = 0
KST3 141026Z 18012KT 18/14 A2992 RMK A01 T01770140  RH  079%=      5-min Rain = 0
KST3 141027Z 18011KT 18/14 A2992 RMK A01 T01770141  RH  079%=      5-min Rain = 0
KST3 141028Z 17012KT 18/14 A2993 RMK A01 T01760141  RH  080%=      5-min Rain = 0
KST3 141029Z 18011KT 18/14 A2993 RMK A01 T01760141  RH  080%=      5-min Rain = 0
KST3 141030Z 17011KT 18/14 A2993 RMK A01 T01760141  RH  080%=      5-min Rain = 0
KST3 141031Z 17011KT 18/14 A2993 RMK A01 T01750141  RH  080%=      5-min Rain = 0
KST3 141032Z 17011KT 18/14 A2993 RMK A01 T01750141  RH  080%=      5-min Rain = 0
KST3 141033Z 17010KT 18/14 A2993 RMK A01 T01750141  RH  080%=      5-min Rain = 0
KST3 141034Z 17012KT 18/14 A2993 RMK A01 T01750141  RH  080%=      5-min Rain = 0
KST3 141035Z 17011KT 18/14 A2993 RMK A01 T01750141  RH  080%=      5-min Rain = 0
KST3 141036Z 17010KT 18/14 A2993 RMK A01 T01750141  RH  081%=      5-min Rain = 0
KST3 141037Z 17011KT 17/14 A2993 RMK A01 T01740141  RH  081%=      5-min Rain = 0
KST3 141038Z 17010KT 17/14 A2993 RMK A01 T01740141  RH  081%=      5-min Rain = 0
KST3 141039Z 17011KT 17/14 A2993 RMK A01 T01740141  RH  081%=      5-min Rain = 0
KST3 141040Z 17011KT 17/14 A2993 RMK A01 T01740141  RH  081%=      5-min Rain = 0
KST3 141041Z 17012KT 17/14 A2993 RMK A01 T01740141  RH  081%=      5-min Rain = 0
KST3 141042Z 16010KT 17/14 A2993 RMK A01 T01740141  RH  081%=      5-min Rain = 0
KST3 141043Z 17010KT 17/14 A2993 RMK A01 T01740142  RH  081%=      5-min Rain = 0
KST3 141044Z 17011KT 17/14 A2993 RMK A01 T01730141  RH  082%=      5-min Rain = 0
KST3 141045Z 17014KT 17/14 A2992 RMK A01 T01730141  RH  082%=      5-min Rain = 0
KST3 141046Z 17017KT 17/14 A2992 RMK A01 T01730141  RH  082%=      5-min Rain = 0
KST3 141047Z 17015KT 17/14 A2992 RMK A01 T01730142  RH  082%=      5-min Rain = 0
KST3 141048Z 17018KT 17/14 A2992 RMK A01 T01730141  RH  082%=      5-min Rain = 0
KST3 141049Z 17015KT 17/14 A2992 RMK A01 T01730141  RH  082%=      5-min Rain = 0
KST3 141050Z 17017KT 17/14 A2992 RMK A01 T01730142  RH  082%=      5-min Rain = 0
KST3 141051Z 17015KT 17/14 A2992 RMK A01 T01730142  RH  082%=      5-min Rain = 0
KST3 141052Z 17014KT 17/14 A2992 RMK A01 T01730142  RH  082%=      5-min Rain = 0
KST3 141053Z 17014KT 17/14 A2992 RMK A01 T01730142  RH  082%=      5-min Rain = 0
KST3 141054Z 17015KT 17/14 A2992 RMK A01 T01720142  RH  083%=      5-min Rain = 0
KST3 141055Z 17012KT 17/14 A2992 RMK A01 T01720142  RH  083%=      5-min Rain = 0
KST3 141056Z 17013KT 17/14 A2992 RMK A01 T01710142  RH  083%=      5-min Rain = 0
KST3 141057Z 18012KT 17/14 A2992 RMK A01 T01710142  RH  083%=      5-min Rain = 0
KST3 141058Z 17012KT 17/14 A2992 RMK A01 T01710143  RH  084%=      5-min Rain = 0
KST3 141059Z 17015KT 17/14 A2992 RMK A01 T01700142  RH  084%=      5-min Rain = 0
KST3 141100Z 17013KT 17/14 A2992 RMK A01 T01700142  RH  084%=      5-min Rain = 0
KST3 141101Z 17014KT 17/14 A2992 RMK A01 T01700142  RH  084%=      5-min Rain = 0
KST3 141102Z 17012KT 17/14 A2992 RMK A01 T01700142  RH  084%=      5-min Rain = 0
KST3 141103Z 17011KT 17/14 A2992 RMK A01 T01690143  RH  084%=      5-min Rain = 0
KST3 141104Z 17012KT 17/14 A2992 RMK A01 T01680143  RH  085%=      5-min Rain = 0
KST3 141105Z 17013KT 17/14 A2992 RMK A01 T01680143  RH  085%=      5-min Rain = 0
KST3 141106Z 18010KT 17/14 A2992 RMK A01 T01680143  RH  085%=      5-min Rain = 0
KST3 141107Z 17012KT 17/14 A2992 RMK A01 T01680143  RH  085%=      5-min Rain = 0
KST3 141108Z 18013KT 17/14 A2992 RMK A01 T01670143  RH  085%=      5-min Rain = 0
KST3 141109Z 18015KT 17/14 A2992 RMK A01 T01680143  RH  085%=      5-min Rain = 0
KST3 141110Z 17013KT 17/14 A2992 RMK A01 T01680143  RH  085%=      5-min Rain = 0
KST3 141111Z 18017KT 17/14 A2991 RMK A01 T01680143  RH  085%=      5-min Rain = 0
KST3 141112Z 18014KT 17/14 A2991 RMK A01 T01680143  RH  085%=      5-min Rain = 0
KST3 141113Z 17015KT 17/14 A2991 RMK A01 T01680143  RH  085%=      5-min Rain = 0
KST3 141114Z 17015KT 17/14 A2991 RMK A01 T01680143  RH  085%=      5-min Rain = 0
KST3 141115Z 18015KT 17/14 A2992 RMK A01 T01680142  RH  085%=      5-min Rain = 0
KST3 141116Z 18014KT 17/14 A2992 RMK A01 T01680143  RH  085%=      5-min Rain = 0
KST3 141117Z 18014KT 17/14 A2991 RMK A01 T01680143  RH  085%=      5-min Rain = 0
KST3 141118Z 18014KT 17/14 A2991 RMK A01 T01680143  RH  085%=      5-min Rain = 0
KST3 141119Z 18015KT 17/14 A2991 RMK A01 T01670143  RH  086%=      5-min Rain = 0
KST3 141120Z 17013KT 17/14 A2991 RMK A01 T01670143  RH  086%=      5-min Rain = 0
KST3 141121Z 17014KT 17/14 A2991 RMK A01 T01660143  RH  086%=      5-min Rain = 0
KST3 141122Z 18012KT 17/14 A2991 RMK A01 T01660143  RH  086%=      5-min Rain = 0
KST3 141123Z 18014KT 17/14 A2991 RMK A01 T01660143  RH  086%=      5-min Rain = 0
KST3 141124Z 18013KT 17/14 A2991 RMK A01 T01660143  RH  086%=      5-min Rain = 0
KST3 141125Z 18014KT 17/14 A2991 RMK A01 T01660143  RH  086%=      5-min Rain = 0
KST3 141126Z 18014KT 17/14 A2991 RMK A01 T01660143  RH  086%=      5-min Rain = 0
KST3 141127Z 18011G16KT 17/14 A2991 RMK A01 T01660143  RH  086%=      5-min Rain = 0
KST3 141128Z 18013KT 17/14 A2991 RMK A01 T01650143  RH  087%=      5-min Rain = 0
KST3 141129Z 18015G20KT 16/14 A2991 RMK A01 T01640143  RH  087%=      5-min Rain = 0
KST3 141130Z 18016KT 16/14 A2991 RMK A01 T01640143  RH  087%=      5-min Rain = 0
KST3 141131Z 18014KT 17/14 A2991 RMK A01 T01650142  RH  087%=      5-min Rain = 0
KST3 141132Z 18017KT 17/14 A2991 RMK A01 T01650142  RH  086%=      5-min Rain = 0
KST3 141133Z 18015KT 17/14 A2991 RMK A01 T01650142  RH  086%=      5-min Rain = 0
KST3 141134Z 18015KT 17/14 A2991 RMK A01 T01650143  RH  086%=      5-min Rain = 0
KST3 141135Z 18015G20KT 17/14 A2991 RMK A01 T01650143  RH  087%=      5-min Rain = 0
KST3 141136Z 18016KT 17/14 A2991 RMK A01 T01650142  RH  087%=      5-min Rain = 0
KST3 141137Z 18014KT 16/14 A2991 RMK A01 T01640142  RH  087%=      5-min Rain = 0
KST3 141138Z 18015KT 16/14 A299 RMK A01 T01640142  RH  087%=      5-min Rain = 0
KST3 141139Z 18014KT 16/14 A299 RMK A01 T01640143  RH  087%=      5-min Rain = 0
KST3 141140Z 17014KT 16/14 A299 RMK A01 T01640143  RH  087%=      5-min Rain = 0
KST3 141141Z 18015KT 16/14 A299 RMK A01 T01630142  RH  087%=      5-min Rain = 0
KST3 141142Z 18015KT 16/14 A299 RMK A01 T01630143  RH  087%=      5-min Rain = 0
KST3 141143Z 18018KT 16/14 A299 RMK A01 T01630143  RH  088%=      5-min Rain = 0
KST3 141144Z 18015KT 16/14 A299 RMK A01 T01630143  RH  088%=      5-min Rain = 0
KST3 141145Z 18014KT 16/14 A299 RMK A01 T01630143  RH  088%=      5-min Rain = 0
KST3 141146Z 19013KT 16/14 A299 RMK A01 T01630143  RH  088%=      5-min Rain = 0
KST3 141147Z 19013KT 16/14 A299 RMK A01 T01630143  RH  088%=      5-min Rain = 0
KST3 141148Z 19013KT 16/14 A299 RMK A01 T01620143  RH  089%=      5-min Rain = 0
KST3 141149Z 18014KT 16/14 A299 RMK A01 T01620143  RH  089%=      5-min Rain = 0
KST3 141150Z 18013KT 16/14 A299 RMK A01 T01610144  RH  089%=      5-min Rain = 0
KST3 141151Z 18015KT 16/14 A299 RMK A01 T01610144  RH  089%=      5-min Rain = 0
KST3 141152Z 18016KT 16/14 A299 RMK A01 T01610144  RH  090%=      5-min Rain = 0
KST3 141153Z 18017KT 16/14 A299 RMK A01 T01610144  RH  090%=      5-min Rain = 0
KST3 141154Z 18016KT 16/14 A299 RMK A01 T01610144  RH  090%=      5-min Rain = 0
KST3 141155Z 18015G21KT 16/14 A299 RMK A01 T01610144  RH  090%=      5-min Rain = 0
KST3 141156Z 18016KT 16/14 A299 RMK A01 T01610144  RH  090%=      5-min Rain = 0
KST3 141157Z 18016KT 16/14 A299 RMK A01 T01610144  RH  090%=      5-min Rain = 0
KST3 141158Z 18015KT 16/14 A299 RMK A01 T01620144  RH  089%=      5-min Rain = 0
KST3 141159Z 19013G18KT 16/14 A299 RMK A01 T01610144  RH  089%=      5-min Rain = 0
KST3 141200Z 19014G19KT 16/14 A299 RMK A01 T01620144  RH  090%=      5-min Rain = 0
KST3 141201Z 19014KT 16/14 A299 RMK A01 T01610144  RH  090%=      5-min Rain = 0
KST3 141202Z 19015KT 16/14 A299 RMK A01 T01610144  RH  090%=      5-min Rain = 0
KST3 141203Z 19014KT 16/14 A299 RMK A01 T01610144  RH  090%=      5-min Rain = 0
KST3 141204Z 19013KT 16/15 A299 RMK A01 T01610145  RH  090%=      5-min Rain = 0
KST3 141205Z 19014KT 16/15 A299 RMK A01 T01610145  RH  090%=      5-min Rain = 0
KST3 141206Z 19013KT 16/15 A299 RMK A01 T01610145  RH  090%=      5-min Rain = 0
KST3 141207Z 19014KT 16/15 A299 RMK A01 T01620145  RH  090%=      5-min Rain = 0
KST3 141208Z 19014KT 16/15 A299 RMK A01 T01610145  RH  090%=      5-min Rain = 0
KST3 141209Z 19013KT 16/15 A299 RMK A01 T01620145  RH  090%=      5-min Rain = 0
KST3 141210Z 19012KT 16/15 A2991 RMK A01 T01610145  RH  090%=      5-min Rain = 0
KST3 141211Z 19010KT 16/15 A2991 RMK A01 T01620146  RH  090%=      5-min Rain = 0
KST3 141212Z 20011KT 16/15 A2991 RMK A01 T01620146  RH  090%=      5-min Rain = 0
KST3 141213Z 19011KT 16/15 A2991 RMK A01 T01620146  RH  090%=      5-min Rain = 0
KST3 141214Z 20012KT 16/15 A2991 RMK A01 T01620146  RH  090%=      5-min Rain = 0
KST3 141215Z 20010KT 16/15 A2991 RMK A01 T01620146  RH  090%=      5-min Rain = 0
KST3 141216Z 19012KT 16/15 A2991 RMK A01 T01620146  RH  090%=      5-min Rain = 0
KST3 141217Z 19013KT 16/15 A2991 RMK A01 T01620146  RH  090%=      5-min Rain = 0
KST3 141218Z 19012KT 16/15 A2991 RMK A01 T01620146  RH  090%=      5-min Rain = 0
KST3 141219Z 19012KT 16/15 A2991 RMK A01 T01630146  RH  090%=      5-min Rain = 0
KST3 141220Z 19013KT 16/15 A2991 RMK A01 T01630146  RH  090%=      5-min Rain = 0
KST3 141221Z 19013KT 16/15 A299 RMK A01 T01630146  RH  090%=      5-min Rain = 0
KST3 141222Z 19012KT 16/15 A299 RMK A01 T01640146  RH  089%=      5-min Rain = 0
KST3 141223Z 19013KT 16/15 A299 RMK A01 T01640147  RH  089%=      5-min Rain = 0
KST3 141224Z 19015KT 16/15 A299 RMK A01 T01640146  RH  089%=      5-min Rain = 0
KST3 141225Z 19014KT 17/15 A299 RMK A01 T01650147  RH  089%=      5-min Rain = 0
KST3 141226Z 19014KT 17/15 A299 RMK A01 T01660147  RH  089%=      5-min Rain = 0
KST3 141227Z 19015KT 17/15 A299 RMK A01 T01660147  RH  088%=      5-min Rain = 0
KST3 141228Z 19015KT 17/15 A299 RMK A01 T01660147  RH  088%=      5-min Rain = 0
KST3 141229Z 19013KT 17/15 A299 RMK A01 T01670147  RH  088%=      5-min Rain = 0
KST3 141230Z 19015KT 17/15 A299 RMK A01 T01680147  RH  088%=      5-min Rain = 0
KST3 141231Z 19016KT 17/15 A299 RMK A01 T01680146  RH  087%=      5-min Rain = 0
KST3 141232Z 19016KT 17/15 A299 RMK A01 T01690146  RH  086%=      5-min Rain = 0
KST3 141233Z 19017KT 17/15 A299 RMK A01 T01700146  RH  086%=      5-min Rain = 0
KST3 141234Z 19016KT 17/15 A299 RMK A01 T01700146  RH  085%=      5-min Rain = 0
KST3 141235Z 20015KT 17/15 A299 RMK A01 T01710146  RH  085%=      5-min Rain = 0
KST3 141236Z 20013KT 17/15 A299 RMK A01 T01710146  RH  085%=      5-min Rain = 0
KST3 141237Z 20015KT 17/15 A299 RMK A01 T01720147  RH  085%=      5-min Rain = 0
KST3 141238Z 20013KT 17/15 A2991 RMK A01 T01720146  RH  085%=      5-min Rain = 0
KST3 141239Z 20013KT 17/15 A2991 RMK A01 T01720147  RH  085%=      5-min Rain = 0
KST3 141240Z 20014KT 17/15 A2991 RMK A01 T01730147  RH  085%=      5-min Rain = 0
KST3 141241Z 21013KT 17/15 A2992 RMK A01 T01740147  RH  084%=      5-min Rain = 0
KST3 141242Z 21016KT 18/15 A2992 RMK A01 T01750147  RH  084%=      5-min Rain = 0
KST3 141243Z 21017KT 18/15 A2992 RMK A01 T01750146  RH  083%=      5-min Rain = 0
KST3 141244Z 21013KT 18/15 A2992 RMK A01 T01750146  RH  083%=      5-min Rain = 0
KST3 141245Z 21014KT 18/15 A2992 RMK A01 T01750147  RH  084%=      5-min Rain = 0
KST3 141246Z 20015KT 18/15 A2991 RMK A01 T01750147  RH  083%=      5-min Rain = 0
KST3 141247Z 20014KT 18/15 A2991 RMK A01 T01750147  RH  083%=      5-min Rain = 0
KST3 141248Z 20014KT 18/15 A2991 RMK A01 T01750147  RH  083%=      5-min Rain = 0
KST3 141249Z 20013KT 18/15 A2991 RMK A01 T01760147  RH  083%=      5-min Rain = 0
KST3 141250Z 21016KT 18/15 A2991 RMK A01 T01760147  RH  083%=      5-min Rain = 0
KST3 141251Z 20016KT 18/15 A2991 RMK A01 T01770146  RH  082%=      5-min Rain = 0
KST3 141252Z 20016KT 18/15 A2991 RMK A01 T01760145  RH  082%=      5-min Rain = 0
KST3 141253Z 20017KT 18/15 A2991 RMK A01 T01760145  RH  082%=      5-min Rain = 0
KST3 141254Z 20014KT 18/15 A2991 RMK A01 T01760145  RH  082%=      5-min Rain = 0
KST3 141255Z 20015KT 18/15 A2991 RMK A01 T01760146  RH  082%=      5-min Rain = 0
KST3 141256Z 19015KT 18/15 A2991 RMK A01 T01770146  RH  082%=      5-min Rain = 0
KST3 141257Z 20012G17KT 18/15 A2991 RMK A01 T01770145  RH  082%=      5-min Rain = 0
KST3 141258Z 20016KT 18/15 A2991 RMK A01 T01780146  RH  082%=      5-min Rain = 0
KST3 141259Z 20014KT 18/15 A2991 RMK A01 T01780145  RH  081%=      5-min Rain = 0
KST3 141300Z 20013KT 18/15 A2991 RMK A01 T01780145  RH  081%=      5-min Rain = 0
KST3 141301Z 20010KT 18/15 A2991 RMK A01 T01780146  RH  081%=      5-min Rain = 0
KST3 141302Z 20012G17KT 18/15 A2991 RMK A01 T01780146  RH  081%=      5-min Rain = 0
KST3 141303Z 20014KT 18/15 A2991 RMK A01 T01790145  RH  081%=      5-min Rain = 0
KST3 141304Z 20012KT 18/15 A2991 RMK A01 T01790145  RH  080%=      5-min Rain = 0
KST3 141305Z 20014KT 18/15 A2991 RMK A01 T01790146  RH  081%=      5-min Rain = 0
KST3 141306Z 20014KT 18/15 A2991 RMK A01 T01790146  RH  081%=      5-min Rain = 0
KST3 141307Z 19013KT 18/15 A2991 RMK A01 T01790146  RH  081%=      5-min Rain = 0
KST3 141308Z 19015KT 18/15 A2991 RMK A01 T01780145  RH  081%=      5-min Rain = 0
KST3 141309Z 20014KT 18/14 A2991 RMK A01 T01780144  RH  081%=      5-min Rain = 0
KST3 141310Z 20015KT 18/15 A2991 RMK A01 T01770145  RH  081%=      5-min Rain = 0
KST3 141311Z 20011KT 18/15 A2991 RMK A01 T01770145  RH  082%=      5-min Rain = 0
KST3 141312Z 20012KT 18/15 A2991 RMK A01 T01770146  RH  082%=      5-min Rain = 0
KST3 141313Z 19012KT 18/15 A2991 RMK A01 T01760146  RH  082%=      5-min Rain = 0
KST3 141314Z 20009KT 18/15 A2991 RMK A01 T01760145  RH  082%=      5-min Rain = 0
KST3 141315Z 19012KT 18/15 A2991 RMK A01 T01760146  RH  082%=      5-min Rain = 0
KST3 141316Z 20010KT 18/15 A2991 RMK A01 T01760145  RH  082%=      5-min Rain = 0
KST3 141317Z 20011KT 18/15 A2991 RMK A01 T01770146  RH  082%=      5-min Rain = 0
KST3 141318Z 19009KT 18/15 A2991 RMK A01 T01770147  RH  082%=      5-min Rain = 0
KST3 141319Z 20009KT 18/15 A2991 RMK A01 T01780147  RH  082%=      5-min Rain = 0
KST3 141320Z 19013KT 18/15 A299 RMK A01 T01790147  RH  082%=      5-min Rain = 0
KST3 141321Z 19011KT 18/15 A299 RMK A01 T01790146  RH  081%=      5-min Rain = 0
KST3 141322Z 20012KT 18/15 A299 RMK A01 T01800147  RH  081%=      5-min Rain = 0
KST3 141323Z 19012G17KT 18/15 A299 RMK A01 T01800147  RH  081%=      5-min Rain = 0
KST3 141324Z 19011KT 18/15 A299 RMK A01 T01800147  RH  081%=      5-min Rain = 0
KST3 141325Z 19012KT 18/15 A299 RMK A01 T01810147  RH  081%=      5-min Rain = 0
KST3 141326Z 19011KT 18/15 A299 RMK A01 T01810147  RH  081%=      5-min Rain = 0
KST3 141327Z 19012KT 18/15 A299 RMK A01 T01820146  RH  080%=      5-min Rain = 0
KST3 141328Z 19012KT 18/15 A299 RMK A01 T01820147  RH  080%=      5-min Rain = 0
KST3 141329Z 19013KT 18/15 A299 RMK A01 T01820147  RH  080%=      5-min Rain = 0
KST3 141330Z 19011KT 18/15 A299 RMK A01 T01820147  RH  080%=      5-min Rain = 0
KST3 141331Z 19012KT 18/15 A299 RMK A01 T01820147  RH  080%=      5-min Rain = 0
KST3 141332Z 18013KT 18/15 A2989 RMK A01 T01820147  RH  080%=      5-min Rain = 0
KST3 141333Z 19014KT 18/15 A2989 RMK A01 T01820146  RH  080%=      5-min Rain = 0
KST3 141334Z 20012KT 18/15 A2989 RMK A01 T01820147  RH  080%=      5-min Rain = 0
KST3 141335Z 19010KT 18/15 A2989 RMK A01 T01820148  RH  080%=      5-min Rain = 0
KST3 141336Z 19010KT 18/15 A2989 RMK A01 T01830148  RH  080%=      5-min Rain = 0
KST3 141337Z 19011KT 18/15 A2989 RMK A01 T01830148  RH  080%=      5-min Rain = 0
KST3 141338Z 19012KT 18/15 A2989 RMK A01 T01840149  RH  080%=      5-min Rain = 0
KST3 141339Z 18011KT 18/15 A2989 RMK A01 T01840148  RH  080%=      5-min Rain = 0
KST3 141340Z 19010KT 18/15 A2989 RMK A01 T01840148  RH  080%=      5-min Rain = 0
KST3 141341Z 19010KT 18/15 A2989 RMK A01 T01840149  RH  080%=      5-min Rain = 0
KST3 141342Z 19011KT 19/15 A2989 RMK A01 T01850149  RH  079%=      5-min Rain = 0
KST3 141343Z 18011KT 19/15 A2989 RMK A01 T01850149  RH  080%=      5-min Rain = 0
KST3 141344Z 19009KT 19/15 A2989 RMK A01 T01850149  RH  079%=      5-min Rain = 0
KST3 141345Z 19011KT 19/15 A2989 RMK A01 T01860150  RH  079%=      5-min Rain = 0
KST3 141346Z 19011KT 19/15 A2989 RMK A01 T01860150  RH  079%=      5-min Rain = 0
KST3 141347Z 20010KT 19/15 A2989 RMK A01 T01870149  RH  079%=      5-min Rain = 0
KST3 141348Z 20014KT 19/15 A2989 RMK A01 T01870150  RH  079%=      5-min Rain = 0
KST3 141349Z 20013KT 19/15 A2989 RMK A01 T01860150  RH  079%=      5-min Rain = 0
KST3 141350Z 19012KT 19/15 A2989 RMK A01 T01870151  RH  080%=      5-min Rain = 0
KST3 141351Z 19013KT 19/15 A2989 RMK A01 T01870151  RH  079%=      5-min Rain = 0
KST3 141352Z 19012KT 19/15 A2989 RMK A01 T01870151  RH  079%=      5-min Rain = 0
KST3 141353Z 19013KT 19/15 A2989 RMK A01 T01880151  RH  079%=      5-min Rain = 0
KST3 141354Z 19013KT 19/15 A2989 RMK A01 T01880150  RH  079%=      5-min Rain = 0
KST3 141355Z 19010KT 19/15 A2989 RMK A01 T01880152  RH  080%=      5-min Rain = 0
KST3 141356Z 19010KT 19/16 A2989 RMK A01 T01900155  RH  080%=      5-min Rain = 0
KST3 141357Z 19011KT 19/16 A2989 RMK A01 T01920155  RH  079%=      5-min Rain = 0
KST3 141358Z 19012KT 19/15 A2989 RMK A01 T01920154  RH  078%=      5-min Rain = 0
KST3 141359Z 19012KT 19/15 A2989 RMK A01 T01920154  RH  078%=      5-min Rain = 0
KST3 141400Z 19011KT 19/16 A2989 RMK A01 T01930155  RH  079%=      5-min Rain = 0
KST3 141401Z 19009KT 19/16 A2989 RMK A01 T01940155  RH  078%=      5-min Rain = 0
KST3 141402Z 19011KT 20/16 A2989 RMK A01 T01950156  RH  078%=      5-min Rain = 0
KST3 141403Z 19014KT 20/16 A2989 RMK A01 T01950155  RH  077%=      5-min Rain = 0
KST3 141404Z 20012KT 20/16 A2989 RMK A01 T01950155  RH  077%=      5-min Rain = 0
KST3 141405Z 20014KT 20/16 A2989 RMK A01 T01960156  RH  078%=      5-min Rain = 0
KST3 141406Z 20011KT 20/16 A299 RMK A01 T01960157  RH  078%=      5-min Rain = 0
KST3 141407Z 19013KT 20/16 A299 RMK A01 T01980158  RH  078%=      5-min Rain = 0
KST3 141408Z 20014KT 20/16 A2989 RMK A01 T01980157  RH  077%=      5-min Rain = 0
KST3 141409Z 20013KT 20/16 A2989 RMK A01 T01990158  RH  077%=      5-min Rain = 0
KST3 141410Z 20011KT 20/16 A2989 RMK A01 T01990160  RH  078%=      5-min Rain = 0
KST3 141411Z 20013KT 20/16 A2989 RMK A01 T02000161  RH  078%=      5-min Rain = 0
KST3 141412Z 20013KT 20/16 A2989 RMK A01 T02010159  RH  077%=      5-min Rain = 0
KST3 141413Z 20014KT 20/16 A2989 RMK A01 T02010157  RH  076%=      5-min Rain = 0
KST3 141414Z 20012KT 20/16 A2989 RMK A01 T02000159  RH  077%=      5-min Rain = 0
KST3 141415Z 20013KT 20/16 A2989 RMK A01 T02020161  RH  077%=      5-min Rain = 0
KST3 141416Z 20013KT 20/16 A2989 RMK A01 T02030160  RH  076%=      5-min Rain = 0
KST3 141417Z 19012KT 20/16 A2989 RMK A01 T02030160  RH  076%=      5-min Rain = 0
KST3 141418Z 20012KT 20/16 A2989 RMK A01 T02040161  RH  077%=      5-min Rain = 0
KST3 141419Z 19010KT 20/16 A2989 RMK A01 T02040161  RH  076%=      5-min Rain = 0
KST3 141420Z 20010KT 21/16 A2989 RMK A01 T02060164  RH  077%=      5-min Rain = 0
KST3 141421Z 21013KT 21/16 A2989 RMK A01 T02070164  RH  076%=      5-min Rain = 0
KST3 141422Z 19010KT 21/16 A2989 RMK A01 T02080164  RH  076%=      5-min Rain = 0
KST3 141423Z 21013KT 21/16 A2989 RMK A01 T02080163  RH  075%=      5-min Rain = 0
KST3 141424Z 20012KT 21/16 A2989 RMK A01 T02080162  RH  075%=      5-min Rain = 0
KST3 141425Z 20013KT 21/16 A2989 RMK A01 T02080163  RH  075%=      5-min Rain = 0
KST3 141426Z 20011KT 21/16 A2989 RMK A01 T02080163  RH  075%=      5-min Rain = 0
KST3 141427Z 20010KT 21/16 A299 RMK A01 T02080163  RH  075%=      5-min Rain = 0
KST3 141428Z 21010KT 21/16 A299 RMK A01 T02090163  RH  075%=      5-min Rain = 0
KST3 141429Z 21009KT 21/16 A299 RMK A01 T02090164  RH  076%=      5-min Rain = 0
KST3 141430Z 20007KT 21/17 A299 RMK A01 T02100166  RH  076%=      5-min Rain = 0
KST3 141431Z 21006KT 21/17 A299 RMK A01 T02110170  RH  077%=      5-min Rain = 0
KST3 141432Z 19009KT 21/17 A299 RMK A01 T02130170  RH  076%=      5-min Rain = 0
KST3 141433Z 20009KT 21/17 A299 RMK A01 T02140166  RH  074%=      5-min Rain = 0
KST3 141434Z 20009KT 21/17 A299 RMK A01 T02140168  RH  075%=      5-min Rain = 0
KST3 141435Z 19011KT 22/17 A299 RMK A01 T02150167  RH  074%=      5-min Rain = 0
KST3 141436Z 19011KT 22/17 A2989 RMK A01 T02150167  RH  074%=      5-min Rain = 0
KST3 141437Z 19010KT 22/17 A2989 RMK A01 T02160167  RH  074%=      5-min Rain = 0
KST3 141438Z 20012KT 22/17 A2989 RMK A01 T02160168  RH  074%=      5-min Rain = 0
KST3 141439Z 21012KT 22/17 A2989 RMK A01 T02180168  RH  073%=      5-min Rain = 0
KST3 141440Z 21012KT 22/17 A299 RMK A01 T02190171  RH  074%=      5-min Rain = 0
KST3 141441Z 21014KT 22/17 A299 RMK A01 T02210169  RH  073%=      5-min Rain = 0
KST3 141442Z 21012KT 22/17 A299 RMK A01 T02210168  RH  072%=      5-min Rain = 0
KST3 141443Z 21013KT 22/17 A2989 RMK A01 T02210169  RH  072%=      5-min Rain = 0
KST3 141444Z 21013KT 22/17 A2989 RMK A01 T02220168  RH  072%=      5-min Rain = 0
KST3 141445Z 20011KT 22/17 A2989 RMK A01 T02210169  RH  072%=      5-min Rain = 0
KST3 141446Z 19010KT 22/17 A2989 RMK A01 T02220170  RH  072%=      5-min Rain = 0
KST3 141447Z 20011KT 22/17 A2989 RMK A01 T02210170  RH  072%=      5-min Rain = 0
KST3 141448Z 21010KT 22/17 A2989 RMK A01 T02220173  RH  074%=      5-min Rain = 0
KST3 141449Z 21012KT 22/17 A2989 RMK A01 T02230170  RH  072%=      5-min Rain = 0
KST3 141450Z 21013KT 22/17 A2989 RMK A01 T02240171  RH  072%=      5-min Rain = 0
KST3 141451Z 21012KT 22/17 A2989 RMK A01 T02240170  RH  071%=      5-min Rain = 0
KST3 141452Z 21013KT 22/17 A299 RMK A01 T02240171  RH  072%=      5-min Rain = 0
KST3 141453Z 22011KT 22/17 A299 RMK A01 T02240171  RH  072%=      5-min Rain = 0
KST3 141454Z 22011KT 23/17 A299 RMK A01 T02250170  RH  071%=      5-min Rain = 0
KST3 141455Z 22008KT 22/17 A299 RMK A01 T02240170  RH  071%=      5-min Rain = 0
KST3 141456Z 22007KT 23/18 A299 RMK A01 T02260176  RH  073%=      5-min Rain = 0
KST3 141457Z 21007KT 23/18 A299 RMK A01 T02280175  RH  072%=      5-min Rain = 0
KST3 141458Z 21009KT 23/17 A2991 RMK A01 T02290173  RH  071%=      5-min Rain = 0
KST3 141459Z 21010KT 23/18 A2991 RMK A01 T02290175  RH  072%=      5-min Rain = 0
KST3 141500Z 22009KT 23/17 A299 RMK A01 T02290173  RH  071%=      5-min Rain = 0
KST3 141501Z 23008KT 23/18 A299 RMK A01 T02300177  RH  072%=      5-min Rain = 0
KST3 141502Z 24011KT 23/18 A299 RMK A01 T02310175  RH  071%=      5-min Rain = 0
KST3 141503Z 23015KT 23/17 A299 RMK A01 T02300171  RH  069%=      5-min Rain = 0
KST3 141504Z 22014KT 23/17 A299 RMK A01 T02280170  RH  070%=      5-min Rain = 0
KST3 141505Z 22015KT 23/17 A299 RMK A01 T02270172  RH  071%=      5-min Rain = 0
KST3 141506Z 22012KT 23/17 A2989 RMK A01 T02270173  RH  071%=      5-min Rain = 0
KST3 141507Z 22015KT 23/17 A2989 RMK A01 T02280174  RH  071%=      5-min Rain = 0
KST3 141508Z 21013KT 23/17 A2989 RMK A01 T02290172  RH  070%=      5-min Rain = 0
KST3 141509Z 21015KT 23/17 A2989 RMK A01 T02300173  RH  070%=      5-min Rain = 0
KST3 141510Z 21015KT 23/17 A2989 RMK A01 T02300174  RH  071%=      5-min Rain = 0
KST3 141511Z 22013KT 23/17 A2989 RMK A01 T02300174  RH  071%=      5-min Rain = 0
KST3 141512Z 22014KT 23/17 A2989 RMK A01 T02300171  RH  069%=      5-min Rain = 0
KST3 141513Z 21013KT 23/17 A2989 RMK A01 T02300172  RH  070%=      5-min Rain = 0
KST3 141514Z 22013KT 23/17 A2989 RMK A01 T02310174  RH  070%=      5-min Rain = 0
KST3 141515Z 22011KT 23/18 A2989 RMK A01 T02320175  RH  070%=      5-min Rain = 0
KST3 141516Z 22012KT 23/18 A2989 RMK A01 T02330178  RH  071%=      5-min Rain = 0
KST3 141517Z 23013KT 23/17 A2989 RMK A01 T02330172  RH  069%=      5-min Rain = 0
KST3 141518Z 21010KT 23/18 A2989 RMK A01 T02320176  RH  071%=      5-min Rain = 0
KST3 141519Z 21012KT 23/18 A2989 RMK A01 T02330178  RH  071%=      5-min Rain = 0
KST3 141520Z 20012KT 23/18 A2989 RMK A01 T02330177  RH  071%=      5-min Rain = 0
KST3 141521Z 22016KT 23/17 A2989 RMK A01 T02330174  RH  069%=      5-min Rain = 0
KST3 141522Z 22015KT 23/17 A2989 RMK A01 T02330172  RH  069%=      5-min Rain = 0
KST3 141523Z 22013KT 23/18 A2989 RMK A01 T02340176  RH  070%=      5-min Rain = 0
KST3 141524Z 21012KT 24/18 A2989 RMK A01 T02360177  RH  069%=      5-min Rain = 0
KST3 141525Z 21013G19KT 24/18 A2989 RMK A01 T02370175  RH  068%=      5-min Rain = 0
KST3 141526Z 22015KT 24/17 A2989 RMK A01 T02370174  RH  068%=      5-min Rain = 0
KST3 141527Z 22013KT 24/17 A2989 RMK A01 T02370174  RH  068%=      5-min Rain = 0
KST3 141528Z 21014KT 24/18 A2989 RMK A01 T02370177  RH  069%=      5-min Rain = 0
KST3 141529Z 22013KT 24/18 A2989 RMK A01 T02370176  RH  069%=      5-min Rain = 0
KST3 141530Z 22013KT 24/18 A2989 RMK A01 T02360176  RH  069%=      5-min Rain = 0
KST3 141531Z 23016KT 24/18 A2989 RMK A01 T02370175  RH  068%=      5-min Rain = 0
KST3 141532Z 23014KT 24/17 A2989 RMK A01 T02360174  RH  068%=      5-min Rain = 0
KST3 141533Z 22014KT 24/18 A2988 RMK A01 T02360176  RH  069%=      5-min Rain = 0
KST3 141534Z 22014KT 24/18 A2988 RMK A01 T02370176  RH  069%=      5-min Rain = 0
KST3 141535Z 22016KT 24/17 A2988 RMK A01 T02360173  RH  068%=      5-min Rain = 0
KST3 141536Z 21014KT 24/18 A2988 RMK A01 T02360175  RH  069%=      5-min Rain = 0
KST3 141537Z 21015KT 24/17 A2988 RMK A01 T02360173  RH  068%=      5-min Rain = 0
KST3 141538Z 21013KT 24/18 A2988 RMK A01 T02360176  RH  069%=      5-min Rain = 0
KST3 141539Z 21014G19KT 24/18 A2988 RMK A01 T02370177  RH  069%=      5-min Rain = 0
KST3 141540Z 22014KT 24/18 A2988 RMK A01 T02380176  RH  068%=      5-min Rain = 0
KST3 141541Z 21012KT 24/18 A2988 RMK A01 T02380176  RH  068%=      5-min Rain = 0
KST3 141542Z 21011KT 24/18 A2988 RMK A01 T02380177  RH  068%=      5-min Rain = 0
KST3 141543Z 21013KT 24/18 A2988 RMK A01 T02380177  RH  069%=      5-min Rain = 0
KST3 141544Z 22011KT 24/18 A2988 RMK A01 T02380177  RH  068%=      5-min Rain = 0
KST3 141545Z 21011KT 24/18 A2988 RMK A01 T02380179  RH  070%=      5-min Rain = 0
KST3 141546Z 22013KT 24/18 A2988 RMK A01 T02380178  RH  069%=      5-min Rain = 0
KST3 141547Z 22011KT 24/18 A2988 RMK A01 T02390177  RH  068%=      5-min Rain = 0
KST3 141548Z 22010KT 24/18 A2988 RMK A01 T02390179  RH  069%=      5-min Rain = 0
KST3 141549Z 21009KT 24/18 A2988 RMK A01 T02400179  RH  069%=      5-min Rain = 0
KST3 141550Z 20011KT 24/18 A2988 RMK A01 T02420182  RH  069%=      5-min Rain = 0
KST3 141551Z 21013KT 24/18 A2988 RMK A01 T02430180  RH  068%=      5-min Rain = 0
KST3 141552Z 21012KT 24/18 A2988 RMK A01 T02430180  RH  068%=      5-min Rain = 0
KST3 141553Z 21012KT 24/18 A2988 RMK A01 T02420179  RH  068%=      5-min Rain = 0
KST3 141554Z 21011KT 24/18 A2988 RMK A01 T02410178  RH  068%=      5-min Rain = 0
KST3 141555Z 22010KT 24/18 A2988 RMK A01 T02410178  RH  068%=      5-min Rain = 0
KST3 141556Z 21009KT 24/18 A2988 RMK A01 T02400180  RH  069%=      5-min Rain = 0
KST3 141557Z 21010KT 24/18 A2988 RMK A01 T02420181  RH  069%=      5-min Rain = 0
KST3 141558Z 21011G16KT 24/18 A2988 RMK A01 T02430179  RH  067%=      5-min Rain = 0
KST3 141559Z 22008KT 24/18 A2988 RMK A01 T02430181  RH  068%=      5-min Rain = 0
KST3 141600Z 22008KT 24/18 A2987 RMK A01 T02430179  RH  068%=      5-min Rain = 0
KST3 141601Z 21011KT 24/18 A2987 RMK A01 T02420179  RH  068%=      5-min Rain = 0
KST3 141602Z 21010KT 24/18 A2987 RMK A01 T02420177  RH  067%=      5-min Rain = 0
KST3 141603Z 22009KT 24/18 A2987 RMK A01 T02430183  RH  069%=      5-min Rain = 0
KST3 141604Z 21009KT 25/18 A2987 RMK A01 T02460182  RH  068%=      5-min Rain = 0
KST3 141605Z 21008KT 25/19 A2987 RMK A01 T02490185  RH  067%=      5-min Rain = 0
KST3 141606Z 20010KT 25/18 A2987 RMK A01 T02510183  RH  066%=      5-min Rain = 0
KST3 141607Z 21010KT 25/18 A2987 RMK A01 T02510182  RH  065%=      5-min Rain = 0
KST3 141608Z 21012KT 25/18 A2987 RMK A01 T02500181  RH  066%=      5-min Rain = 0
KST3 141609Z 21015KT 25/18 A2987 RMK A01 T02520180  RH  065%=      5-min Rain = 0
KST3 141610Z 23015KT 25/18 A2987 RMK A01 T02540176  RH  062%=      5-min Rain = 0
KST3 141611Z 23014KT 25/17 A2987 RMK A01 T02540174  RH  061%=      5-min Rain = 0
KST3 141612Z 24015KT 25/18 A2987 RMK A01 T02540177  RH  062%=      5-min Rain = 0
KST3 141613Z 23014KT 26/18 A2987 RMK A01 T02550178  RH  063%=      5-min Rain = 0
KST3 141614Z 22011KT 26/18 A2987 RMK A01 T02550181  RH  064%=      5-min Rain = 0
KST3 141615Z 22011KT 26/18 A2987 RMK A01 T02560184  RH  064%=      5-min Rain = 0
KST3 141616Z 21013KT 26/18 A2987 RMK A01 T02560184  RH  064%=      5-min Rain = 0
KST3 141617Z 22014KT 26/18 A2987 RMK A01 T02570180  RH  063%=      5-min Rain = 0
KST3 141618Z 21012KT 26/19 A2987 RMK A01 T02580185  RH  064%=      5-min Rain = 0
KST3 141619Z 21014KT 26/18 A2987 RMK A01 T02600181  RH  062%=      5-min Rain = 0
KST3 141620Z 22014KT 26/18 A2987 RMK A01 T02610180  RH  061%=      5-min Rain = 0
KST3 141621Z 24015KT 26/18 A2987 RMK A01 T02610179  RH  061%=      5-min Rain = 0
KST3 141622Z 23013KT 26/18 A2986 RMK A01 T02610175  RH  059%=      5-min Rain = 0
KST3 141623Z 22013KT 26/18 A2986 RMK A01 T02610177  RH  060%=      5-min Rain = 0
KST3 141624Z 21013KT 26/18 A2986 RMK A01 T02620183  RH  062%=      5-min Rain = 0
KST3 141625Z 22014KT 26/18 A2986 RMK A01 T02620183  RH  062%=      5-min Rain = 0
KST3 141626Z 23012KT 26/18 A2986 RMK A01 T02630175  RH  058%=      5-min Rain = 0
KST3 141627Z 23015KT 26/18 A2986 RMK A01 T02630180  RH  060%=      5-min Rain = 0
KST3 141628Z 23015KT 27/18 A2986 RMK A01 T02650179  RH  059%=      5-min Rain = 0
KST3 141629Z 22013G18KT 27/18 A2986 RMK A01 T02650179  RH  059%=      5-min Rain = 0
KST3 141630Z 21010KT 27/19 A2986 RMK A01 T02660185  RH  061%=      5-min Rain = 0
KST3 141631Z 22010KT 27/19 A2986 RMK A01 T02660189  RH  063%=      5-min Rain = 0
KST3 141632Z 24015G21KT 27/18 A2986 RMK A01 T02680183  RH  060%=      5-min Rain = 0
KST3 141633Z 23017G22KT 27/17 A2986 RMK A01 T02680169  RH  055%=      5-min Rain = 0
KST3 141634Z 23016KT 27/17 A2986 RMK A01 T02660170  RH  055%=      5-min Rain = 0
KST3 141635Z 23015KT 26/17 A2986 RMK A01 T02640166  RH  055%=      5-min Rain = 0
KST3 141636Z 23015KT 26/17 A2986 RMK A01 T02630172  RH  057%=      5-min Rain = 0
KST3 141637Z 22014KT 26/17 A2986 RMK A01 T02630171  RH  057%=      5-min Rain = 0
KST3 141638Z 22015KT 26/18 A2986 RMK A01 T02640178  RH  059%=      5-min Rain = 0
KST3 141639Z 23013KT 27/18 A2986 RMK A01 T02680175  RH  057%=      5-min Rain = 0
KST3 141640Z 24017KT 27/18 A2986 RMK A01 T02700175  RH  056%=      5-min Rain = 0
KST3 141641Z 24015KT 27/17 A2986 RMK A01 T02690170  RH  055%=      5-min Rain = 0
KST3 141642Z 24015KT 27/17 A2986 RMK A01 T02680174  RH  057%=      5-min Rain = 0.01
KST3 141643Z 24013KT 27/17 A2986 RMK A01 T02680172  RH  056%=      5-min Rain = 0
KST3 141644Z 24013KT 27/17 A2986 RMK A01 T02690174  RH  056%=      5-min Rain = 0
KST3 141645Z 23014G21KT 27/17 A2986 RMK A01 T02700173  RH  055%=      5-min Rain = 0
KST3 141646Z 22015KT 27/17 A2986 RMK A01 T02700168  RH  054%=      5-min Rain = 0
KST3 141647Z 23013KT 27/17 A2986 RMK A01 T02700170  RH  054%=      5-min Rain = 0
KST3 141648Z 23013KT 27/17 A2986 RMK A01 T02690174  RH  056%=      5-min Rain = 0
KST3 141649Z 24013KT 27/18 A2986 RMK A01 T02720178  RH  056%=      5-min Rain = 0
KST3 141650Z 23014KT 28/17 A2986 RMK A01 T02760173  RH  054%=      5-min Rain = 0
KST3 141651Z 24011KT 27/17 A2986 RMK A01 T02740170  RH  053%=      5-min Rain = 0
KST3 141652Z 23011KT 27/17 A2986 RMK A01 T02720170  RH  054%=      5-min Rain = 0
KST3 141653Z 22012KT 27/18 A2986 RMK A01 T02720177  RH  056%=      5-min Rain = 0
KST3 141654Z 21013KT 27/17 A2986 RMK A01 T02740172  RH  054%=      5-min Rain = 0
KST3 141655Z 21011KT 27/17 A2987 RMK A01 T02740171  RH  054%=      5-min Rain = 0
KST3 141656Z 22009KT 27/18 A2987 RMK A01 T02730175  RH  055%=      5-min Rain = 0
KST3 141657Z 21009KT 28/18 A2987 RMK A01 T02750176  RH  055%=      5-min Rain = 0
KST3 141658Z 22011KT 28/17 A2987 RMK A01 T02750172  RH  053%=      5-min Rain = 0
KST3 141659Z 24012KT 28/18 A2986 RMK A01 T02750177  RH  055%=      5-min Rain = 0
KST3 141700Z 24014KT 28/18 A2986 RMK A01 T02760179  RH  056%=      5-min Rain = 0
KST3 141701Z 24013KT 28/17 A2986 RMK A01 T02770170  RH  052%=      5-min Rain = 0
KST3 141702Z 22009KT 28/18 A2986 RMK A01 T02760179  RH  055%=      5-min Rain = 0
KST3 141703Z 22011KT 28/17 A2986 RMK A01 T02770174  RH  053%=      5-min Rain = 0
KST3 141704Z 22011KT 28/18 A2986 RMK A01 T02790179  RH  054%=      5-min Rain = 0
KST3 141705Z 22011KT 28/17 A2986 RMK A01 T02810171  RH  051%=      5-min Rain = 0
KST3 141706Z 23015KT 28/17 A2986 RMK A01 T02810171  RH  051%=      5-min Rain = 0
KST3 141707Z 23012KT 28/17 A2986 RMK A01 T02810169  RH  050%=      5-min Rain = 0
KST3 141708Z 23015KT 28/17 A2986 RMK A01 T02810169  RH  051%=      5-min Rain = 0
KST3 141709Z 23011KT 28/17 A2986 RMK A01 T02810169  RH  051%=      5-min Rain = 0
KST3 141710Z 22010G16KT 28/17 A2986 RMK A01 T02790170  RH  051%=      5-min Rain = 0
KST3 141711Z 23014KT 28/17 A2986 RMK A01 T02790169  RH  051%=      5-min Rain = 0
KST3 141712Z 23012KT 28/16 A2986 RMK A01 T02770163  RH  050%=      5-min Rain = 0
KST3 141713Z 24012KT 28/17 A2986 RMK A01 T02750165  RH  051%=      5-min Rain = 0
KST3 141714Z 25009KT 28/17 A2986 RMK A01 T02750168  RH  052%=      5-min Rain = 0
KST3 141715Z 24009KT 28/18 A2986 RMK A01 T02760175  RH  054%=      5-min Rain = 0
KST3 141716Z 23010KT 28/18 A2986 RMK A01 T02790175  RH  053%=      5-min Rain = 0
KST3 141717Z 23009KT 28/18 A2986 RMK A01 T02810178  RH  053%=      5-min Rain = 0
KST3 141718Z 21008KT 28/18 A2986 RMK A01 T02830175  RH  052%=      5-min Rain = 0
KST3 141719Z 21011KT 28/18 A2986 RMK A01 T02840175  RH  052%=      5-min Rain = 0
KST3 141720Z 23013KT 28/17 A2986 RMK A01 T02830172  RH  051%=      5-min Rain = 0
KST3 141721Z 24014KT 28/17 A2986 RMK A01 T02830173  RH  051%=      5-min Rain = 0
KST3 141722Z 23013KT 28/17 A2986 RMK A01 T02830169  RH  050%=      5-min Rain = 0
KST3 141723Z 23011KT 28/16 A2986 RMK A01 T02810164  RH  049%=      5-min Rain = 0
KST3 141724Z 23012KT 28/17 A2986 RMK A01 T02790166  RH  050%=      5-min Rain = 0
KST3 141725Z 23011KT 28/17 A2986 RMK A01 T02790167  RH  051%=      5-min Rain = 0
KST3 141726Z 23013KT 28/17 A2986 RMK A01 T02800172  RH  052%=      5-min Rain = 0
KST3 141727Z 23011KT 28/16 A2986 RMK A01 T02810164  RH  049%=      5-min Rain = 0
KST3 141728Z 21009KT 28/17 A2985 RMK A01 T02790170  RH  052%=      5-min Rain = 0
KST3 141729Z 23011KT 28/17 A2986 RMK A01 T02790166  RH  050%=      5-min Rain = 0
KST3 141730Z 24010KT 28/17 A2986 RMK A01 T02780166  RH  050%=      5-min Rain = 0
KST3 141731Z 24013KT 28/17 A2986 RMK A01 T02780168  RH  051%=      5-min Rain = 0
KST3 141732Z 25012KT 28/17 A2986 RMK A01 T02780165  RH  050%=      5-min Rain = 0
KST3 141733Z 25010KT 28/17 A2986 RMK A01 T02770167  RH  051%=      5-min Rain = 0
KST3 141734Z 25008KT 28/17 A2985 RMK A01 T02770167  RH  051%=      5-min Rain = 0
KST3 141735Z 23011KT 28/17 A2985 RMK A01 T02770165  RH  051%=      5-min Rain = 0
KST3 141736Z 23011KT 28/17 A2985 RMK A01 T02760167  RH  051%=      5-min Rain = 0
KST3 141737Z 23014KT 28/16 A2985 RMK A01 T02770164  RH  050%=      5-min Rain = 0
KST3 141738Z 22012KT 28/16 A2985 RMK A01 T02770163  RH  050%=      5-min Rain = 0
KST3 141739Z 22011KT 28/16 A2985 RMK A01 T02770164  RH  050%=      5-min Rain = 0
KST3 141740Z 22009KT 28/16 A2985 RMK A01 T02770163  RH  050%=      5-min Rain = 0
KST3 141741Z 23010KT 28/17 A2985 RMK A01 T02770166  RH  051%=      5-min Rain = 0
KST3 141742Z 24009KT 28/16 A2985 RMK A01 T02780161  RH  049%=      5-min Rain = 0
KST3 141743Z 23009KT 28/17 A2985 RMK A01 T02770167  RH  051%=      5-min Rain = 0
KST3 141744Z 23011KT 28/16 A2985 RMK A01 T02770164  RH  050%=      5-min Rain = 0
KST3 141745Z 25010KT 28/17 A2985 RMK A01 T02780168  RH  051%=      5-min Rain = 0
KST3 141746Z 25011KT 28/16 A2985 RMK A01 T02790163  RH  049%=      5-min Rain = 0
KST3 141747Z 25010KT 28/17 A2985 RMK A01 T02790165  RH  050%=      5-min Rain = 0
KST3 141748Z 25011KT 28/16 A2985 RMK A01 T02790162  RH  049%=      5-min Rain = 0
KST3 141749Z 25012KT 28/16 A2985 RMK A01 T02790160  RH  048%=      5-min Rain = 0
KST3 141750Z 25011KT 28/16 A2985 RMK A01 T02790163  RH  049%=      5-min Rain = 0
KST3 141751Z 25010G15KT 28/17 A2985 RMK A01 T02790167  RH  051%=      5-min Rain = 0
KST3 141752Z 25014KT 28/17 A2985 RMK A01 T02790166  RH  050%=      5-min Rain = 0
KST3 141753Z 25012KT 28/16 A2985 RMK A01 T02790161  RH  049%=      5-min Rain = 0
KST3 141754Z 24012KT 28/17 A2985 RMK A01 T02780167  RH  051%=      5-min Rain = 0
KST3 141755Z 23013KT 28/16 A2985 RMK A01 T02780163  RH  050%=      5-min Rain = 0
KST3 141756Z 24014KT 28/16 A2985 RMK A01 T02770157  RH  048%=      5-min Rain = 0
KST3 141757Z 24011KT 28/16 A2985 RMK A01 T02760159  RH  049%=      5-min Rain = 0
KST3 141758Z 23012KT 28/16 A2985 RMK A01 T02760161  RH  049%=      5-min Rain = 0
KST3 141759Z 23012KT 28/16 A2985 RMK A01 T02760156  RH  048%=      5-min Rain = 0
KST3 141800Z 23010KT 28/16 A2985 RMK A01 T02760160  RH  049%=      5-min Rain = 0
KST3 141801Z 23009KT 28/17 A2985 RMK A01 T02770165  RH  050%=      5-min Rain = 0
KST3 141802Z 22010KT 28/16 A2985 RMK A01 T02790163  RH  049%=      5-min Rain = 0
KST3 141803Z 24008KT 28/17 A2985 RMK A01 T02790166  RH  050%=      5-min Rain = 0
KST3 141804Z 23008KT 28/17 A2985 RMK A01 T02800165  RH  050%=      5-min Rain = 0
KST3 141805Z 22010KT 28/16 A2985 RMK A01 T02790158  RH  048%=      5-min Rain = 0
KST3 141806Z 23011KT 28/16 A2985 RMK A01 T02790161  RH  049%=      5-min Rain = 0
KST3 141807Z 24010KT 28/16 A2985 RMK A01 T02780157  RH  048%=      5-min Rain = 0
KST3 141808Z 24009KT 28/16 A2985 RMK A01 T02780162  RH  049%=      5-min Rain = 0
KST3 141809Z 25009KT 28/16 A2985 RMK A01 T02780164  RH  050%=      5-min Rain = 0
KST3 141810Z 24009KT 28/16 A2985 RMK A01 T02780163  RH  050%=      5-min Rain = 0
KST3 141811Z 23010KT 28/16 A2985 RMK A01 T02780160  RH  049%=      5-min Rain = 0
KST3 141812Z 23011KT 28/16 A2985 RMK A01 T02780160  RH  049%=      5-min Rain = 0
KST3 141813Z 24009KT 28/16 A2985 RMK A01 T02770159  RH  049%=      5-min Rain = 0
KST3 141814Z 25009KT 28/16 A2985 RMK A01 T02770162  RH  050%=      5-min Rain = 0
KST3 141815Z 25007KT 28/16 A2985 RMK A01 T02760163  RH  050%=      5-min Rain = 0
KST3 141816Z 25008KT 28/17 A2985 RMK A01 T02760169  RH  052%=      5-min Rain = 0
KST3 141817Z 24009KT 28/16 A2985 RMK A01 T02760162  RH  050%=      5-min Rain = 0
KST3 141818Z 23011KT 28/16 A2985 RMK A01 T02760158  RH  048%=      5-min Rain = 0
KST3 141819Z 24011KT 28/16 A2985 RMK A01 T02760157  RH  048%=      5-min Rain = 0
KST3 141820Z 24011KT 28/15 A2984 RMK A01 T02760152  RH  047%=      5-min Rain = 0
KST3 141821Z 24010KT 28/15 A2984 RMK A01 T02760152  RH  047%=      5-min Rain = 0
KST3 141822Z 23009KT 28/16 A2984 RMK A01 T02760160  RH  049%=      5-min Rain = 0
KST3 141823Z 23009KT 28/16 A2984 RMK A01 T02770158  RH  048%=      5-min Rain = 0
KST3 141824Z 24009KT 28/16 A2984 RMK A01 T02770158  RH  048%=      5-min Rain = 0
KST3 141825Z 23008KT 28/16 A2984 RMK A01 T02780156  RH  047%=      5-min Rain = 0
KST3 141826Z 23010KT 28/16 A2984 RMK A01 T02780159  RH  048%=      5-min Rain = 0
KST3 141827Z 24010KT 28/16 A2984 RMK A01 T02790159  RH  048%=      5-min Rain = 0
KST3 141828Z 24009KT 28/16 A2984 RMK A01 T02800159  RH  048%=      5-min Rain = 0
KST3 141829Z 23010KT 28/16 A2984 RMK A01 T02810160  RH  048%=      5-min Rain = 0
KST3 141830Z 24009KT 28/16 A2984 RMK A01 T02810157  RH  047%=      5-min Rain = 0
KST3 141831Z 23009KT 28/16 A2984 RMK A01 T02810164  RH  049%=      5-min Rain = 0
KST3 141832Z 23010KT 28/16 A2984 RMK A01 T02830163  RH  048%=      5-min Rain = 0
KST3 141833Z 22008KT 28/16 A2984 RMK A01 T02830156  RH  046%=      5-min Rain = 0
KST3 141834Z 23010KT 28/16 A2984 RMK A01 T02830161  RH  047%=      5-min Rain = 0
KST3 141835Z 21009KT 28/16 A2984 RMK A01 T02840159  RH  047%=      5-min Rain = 0
KST3 141836Z 22008KT 28/17 A2984 RMK A01 T02840165  RH  048%=      5-min Rain = 0
KST3 141837Z 23009KT 28/16 A2984 RMK A01 T02840161  RH  047%=      5-min Rain = 0
KST3 141838Z 23010KT 29/16 A2984 RMK A01 T02850156  RH  046%=      5-min Rain = 0
KST3 141839Z 24009KT 28/16 A2984 RMK A01 T02840157  RH  046%=      5-min Rain = 0
KST3 141840Z 21008KT 28/16 A2984 RMK A01 T02840160  RH  047%=      5-min Rain = 0
KST3 141841Z 22009KT 28/16 A2984 RMK A01 T02830161  RH  047%=      5-min Rain = 0
KST3 141842Z 23008KT 28/16 A2984 RMK A01 T02830161  RH  048%=      5-min Rain = 0
KST3 141843Z 22006KT 28/16 A2984 RMK A01 T02830160  RH  047%=      5-min Rain = 0
KST3 141844Z 22006KT 28/17 A2984 RMK A01 T02840170  RH  050%=      5-min Rain = 0
KST3 141845Z 22008KT 29/17 A2984 RMK A01 T02870171  RH  050%=      5-min Rain = 0
KST3 141846Z 23008KT 29/16 A2984 RMK A01 T02880161  RH  046%=      5-min Rain = 0
KST3 141847Z 24008KT 29/16 A2984 RMK A01 T02880162  RH  046%=      5-min Rain = 0
KST3 141848Z 22008KT 29/16 A2984 RMK A01 T02880160  RH  046%=      5-min Rain = 0
KST3 141849Z 21010KT 29/17 A2984 RMK A01 T02880165  RH  047%=      5-min Rain = 0
KST3 141850Z 22008KT 29/16 A2984 RMK A01 T02890158  RH  045%=      5-min Rain = 0
KST3 141851Z 22009KT 29/16 A2984 RMK A01 T02890159  RH  045%=      5-min Rain = 0
KST3 141852Z 24007KT 29/16 A2984 RMK A01 T02900163  RH  046%=      5-min Rain = 0
KST3 141853Z 23008KT 29/16 A2984 RMK A01 T02900164  RH  047%=      5-min Rain = 0
KST3 141854Z 25008KT 29/17 A2984 RMK A01 T02890168  RH  048%=      5-min Rain = 0
KST3 141855Z 24007KT 29/16 A2983 RMK A01 T02890157  RH  045%=      5-min Rain = 0
KST3 141856Z 23007KT 29/17 A2983 RMK A01 T02880167  RH  048%=      5-min Rain = 0
KST3 141857Z 21007KT 29/16 A2983 RMK A01 T02890159  RH  045%=      5-min Rain = 0
KST3 141858Z 20007KT 29/16 A2983 RMK A01 T02890163  RH  046%=      5-min Rain = 0
KST3 141859Z 20008KT 29/16 A2983 RMK A01 T02900157  RH  045%=      5-min Rain = 0
KST3 141900Z 19008KT 29/16 A2983 RMK A01 T02890162  RH  046%=      5-min Rain = 0
KST3 141901Z 21010KT 29/16 A2983 RMK A01 T02890158  RH  045%=      5-min Rain = 0
KST3 141902Z 21009KT 29/16 A2983 RMK A01 T02890161  RH  046%=      5-min Rain = 0
KST3 141903Z 21007KT 29/16 A2983 RMK A01 T02890163  RH  046%=      5-min Rain = 0
KST3 141904Z 19007KT 29/17 A2983 RMK A01 T02910169  RH  048%=      5-min Rain = 0
KST3 141905Z 19006KT 29/17 A2983 RMK A01 T02940170  RH  047%=      5-min Rain = 0
KST3 141906Z 22008KT 30/16 A2983 RMK A01 T02960163  RH  045%=      5-min Rain = 0
KST3 141907Z 23009KT 30/16 A2983 RMK A01 T02960157  RH  043%=      5-min Rain = 0
KST3 141908Z 23008KT 30/16 A2983 RMK A01 T02950156  RH  043%=      5-min Rain = 0
KST3 141909Z 23007KT 29/16 A2983 RMK A01 T02930155  RH  043%=      5-min Rain = 0
KST3 141910Z 21010KT 29/16 A2983 RMK A01 T02920162  RH  045%=      5-min Rain = 0
KST3 141911Z 20009KT 29/16 A2983 RMK A01 T02930164  RH  046%=      5-min Rain = 0
KST3 141912Z 20011KT 30/16 A2983 RMK A01 T02950159  RH  044%=      5-min Rain = 0
KST3 141913Z 21010KT 30/16 A2983 RMK A01 T02950155  RH  042%=      5-min Rain = 0
KST3 141914Z 21010KT 30/16 A2983 RMK A01 T02950163  RH  045%=      5-min Rain = 0
KST3 141915Z 21009KT 30/16 A2983 RMK A01 T02950163  RH  045%=      5-min Rain = 0
KST3 141916Z 20009KT 30/16 A2983 RMK A01 T02960156  RH  043%=      5-min Rain = 0
KST3 141917Z 21007KT 30/16 A2983 RMK A01 T02960155  RH  043%=      5-min Rain = 0
KST3 141918Z 21011KT 30/16 A2983 RMK A01 T02960161  RH  044%=      5-min Rain = 0
KST3 141919Z 20007KT 30/15 A2983 RMK A01 T02970153  RH  042%=      5-min Rain = 0
KST3 141920Z 17007KT 30/15 A2983 RMK A01 T02960154  RH  042%=      5-min Rain = 0
KST3 141921Z 18008KT 30/17 A2983 RMK A01 T02960165  RH  045%=      5-min Rain = 0
KST3 141922Z 20009KT 30/16 A2983 RMK A01 T02970164  RH  045%=      5-min Rain = 0
KST3 141923Z 21008KT 30/16 A2983 RMK A01 T02980159  RH  043%=      5-min Rain = 0
KST3 141924Z 19007KT 30/16 A2983 RMK A01 T02960157  RH  043%=      5-min Rain = 0
KST3 141925Z 20008KT 29/16 A2983 RMK A01 T02940160  RH  044%=      5-min Rain = 0
KST3 141926Z 17007KT 30/16 A2983 RMK A01 T02950163  RH  045%=      5-min Rain = 0
KST3 141927Z 19009KT 30/16 A2983 RMK A01 T02950160  RH  044%=      5-min Rain = 0
KST3 141928Z 18009KT 30/16 A2983 RMK A01 T02960161  RH  044%=      5-min Rain = 0
KST3 141929Z 18010KT 30/17 A2983 RMK A01 T02980167  RH  045%=      5-min Rain = 0
KST3 141930Z 20010KT 30/16 A2983 RMK A01 T03010162  RH  043%=      5-min Rain = 0
KST3 141931Z 20009KT 30/15 A2983 RMK A01 T03000152  RH  041%=      5-min Rain = 0
KST3 141932Z 19010KT 30/15 A2983 RMK A01 T02970153  RH  042%=      5-min Rain = 0
KST3 141933Z 20008KT 30/16 A2983 RMK A01 T02960155  RH  042%=      5-min Rain = 0
KST3 141934Z 21008KT 30/15 A2983 RMK A01 T02960153  RH  042%=      5-min Rain = 0
KST3 141935Z 20011KT 30/16 A2983 RMK A01 T02960157  RH  043%=      5-min Rain = 0
KST3 141936Z 21010KT 30/16 A2983 RMK A01 T02970155  RH  042%=      5-min Rain = 0
KST3 141937Z 19009KT 30/16 A2983 RMK A01 T02970158  RH  043%=      5-min Rain = 0
KST3 141938Z 20010KT 30/16 A2983 RMK A01 T02970158  RH  043%=      5-min Rain = 0
KST3 141939Z 20009KT 30/16 A2983 RMK A01 T02970160  RH  044%=      5-min Rain = 0
KST3 141940Z 19010KT 30/16 A2983 RMK A01 T02960157  RH  043%=      5-min Rain = 0
KST3 141941Z 18010KT 30/15 A2983 RMK A01 T02950151  RH  042%=      5-min Rain = 0
KST3 141942Z 18009KT 29/15 A2983 RMK A01 T02940150  RH  042%=      5-min Rain = 0
KST3 141943Z 21008KT 29/15 A2983 RMK A01 T02930154  RH  043%=      5-min Rain = 0
KST3 141944Z 19007KT 29/16 A2983 RMK A01 T02920158  RH  044%=      5-min Rain = 0
KST3 141945Z 19011KT 29/16 A2982 RMK A01 T02920156  RH  044%=      5-min Rain = 0
KST3 141946Z 19010KT 29/16 A2982 RMK A01 T02920155  RH  044%=      5-min Rain = 0
KST3 141947Z 20010KT 29/16 A2982 RMK A01 T02920158  RH  044%=      5-min Rain = 0
KST3 141948Z 20009KT 29/15 A2982 RMK A01 T02930153  RH  043%=      5-min Rain = 0
KST3 141949Z 20008KT 29/16 A2982 RMK A01 T02940158  RH  044%=      5-min Rain = 0
KST3 141950Z 20010KT 30/16 A2982 RMK A01 T02960155  RH  042%=      5-min Rain = 0
KST3 141951Z 20011KT 30/17 A2982 RMK A01 T02980166  RH  045%=      5-min Rain = 0
KST3 141952Z 20010KT 30/16 A2982 RMK A01 T03000161  RH  043%=      5-min Rain = 0
KST3 141953Z 20009KT 30/16 A2982 RMK A01 T03010155  RH  041%=      5-min Rain = 0
KST3 141954Z 19010KT 30/16 A2982 RMK A01 T03000156  RH  042%=      5-min Rain = 0
KST3 141955Z 19007KT 30/15 A2982 RMK A01 T02990149  RH  040%=      5-min Rain = 0
KST3 141956Z 22010KT 30/16 A2982 RMK A01 T02980160  RH  043%=      5-min Rain = 0
KST3 141957Z 20011KT 30/16 A2982 RMK A01 T03000163  RH  044%=      5-min Rain = 0
KST3 141958Z 19009KT 30/16 A2982 RMK A01 T03000157  RH  042%=      5-min Rain = 0
KST3 141959Z 18009KT 30/16 A2982 RMK A01 T03000158  RH  042%=      5-min Rain = 0
KST3 142000Z 20010KT 30/16 A2982 RMK A01 T03000155  RH  042%=      5-min Rain = 0
KST3 142001Z 21009KT 30/16 A2982 RMK A01 T03000163  RH  044%=      5-min Rain = 0
KST3 142002Z 19008KT 30/17 A2982 RMK A01 T03010167  RH  044%=      5-min Rain = 0
KST3 142003Z 18012KT 30/16 A2982 RMK A01 T03030157  RH  041%=      5-min Rain = 0
KST3 142004Z 18012KT 30/15 A2982 RMK A01 T03030149  RH  039%=      5-min Rain = 0
KST3 142005Z 18009KT 30/15 A2982 RMK A01 T03030153  RH  040%=      5-min Rain = 0
KST3 142006Z 20011KT 30/15 A2982 RMK A01 T03040152  RH  040%=      5-min Rain = 0
KST3 142007Z 21013KT 30/16 A2982 RMK A01 T03040159  RH  042%=      5-min Rain = 0
KST3 142008Z 20011KT 30/15 A2982 RMK A01 T03040154  RH  040%=      5-min Rain = 0
KST3 142009Z 19011KT 30/16 A2982 RMK A01 T03030155  RH  041%=      5-min Rain = 0
KST3 142010Z 19013KT 30/15 A2982 RMK A01 T03030154  RH  040%=      5-min Rain = 0
KST3 142011Z 20013KT 30/15 A2982 RMK A01 T03030152  RH  040%=      5-min Rain = 0
KST3 142012Z 20009KT 30/15 A2982 RMK A01 T03030153  RH  040%=      5-min Rain = 0
KST3 142013Z 20009KT 30/16 A2982 RMK A01 T03030156  RH  041%=      5-min Rain = 0
KST3 142014Z 20011KT 31/16 A2982 RMK A01 T03050164  RH  043%=      5-min Rain = 0
KST3 142015Z 19011KT 31/15 A2982 RMK A01 T03070152  RH  039%=      5-min Rain = 0
KST3 142016Z 19012KT 31/15 A2982 RMK A01 T03060147  RH  038%=      5-min Rain = 0
KST3 142017Z 20010KT 31/15 A2982 RMK A01 T03050149  RH  039%=      5-min Rain = 0
KST3 142018Z 20013KT 31/15 A2982 RMK A01 T03050150  RH  039%=      5-min Rain = 0
KST3 142019Z 22013KT 31/15 A2982 RMK A01 T03050150  RH  039%=      5-min Rain = 0
KST3 142020Z 22014KT 31/15 A2982 RMK A01 T03050154  RH  040%=      5-min Rain = 0
KST3 142021Z 22011KT 31/15 A2982 RMK A01 T03060149  RH  039%=      5-min Rain = 0
KST3 142022Z 21011KT 31/15 A2982 RMK A01 T03060150  RH  039%=      5-min Rain = 0
KST3 142023Z 21009KT 31/15 A2982 RMK A01 T03050151  RH  039%=      5-min Rain = 0
KST3 142024Z 20010KT 31/15 A2981 RMK A01 T03050150  RH  039%=      5-min Rain = 0
KST3 142025Z 21010KT 31/15 A2981 RMK A01 T03050154  RH  040%=      5-min Rain = 0
KST3 142026Z 22009KT 31/15 A2981 RMK A01 T03050152  RH  039%=      5-min Rain = 0
KST3 142027Z 20009KT 31/16 A2981 RMK A01 T03060156  RH  040%=      5-min Rain = 0
KST3 142028Z 20009KT 31/15 A2981 RMK A01 T03070151  RH  039%=      5-min Rain = 0
KST3 142029Z 21012KT 31/16 A2981 RMK A01 T03070155  RH  040%=      5-min Rain = 0
KST3 142030Z 21010KT 30/15 A2981 RMK A01 T03040154  RH  040%=      5-min Rain = 0
KST3 142031Z 21011KT 30/15 A2981 RMK A01 T03020149  RH  040%=      5-min Rain = 0
KST3 142032Z 20009KT 30/15 A2981 RMK A01 T03000153  RH  041%=      5-min Rain = 0
KST3 142033Z 20009KT 30/15 A2981 RMK A01 T03010146  RH  039%=      5-min Rain = 0
KST3 142034Z 21012KT 30/15 A2981 RMK A01 T03030153  RH  040%=      5-min Rain = 0
KST3 142035Z 22012KT 30/15 A2981 RMK A01 T03040149  RH  039%=      5-min Rain = 0
KST3 142036Z 21012KT 31/16 A2981 RMK A01 T03060156  RH  040%=      5-min Rain = 0
KST3 142037Z 21011KT 31/15 A2981 RMK A01 T03070150  RH  039%=      5-min Rain = 0
KST3 142038Z 20010KT 31/15 A2981 RMK A01 T03080145  RH  037%=      5-min Rain = 0
KST3 142039Z 20007KT 31/15 A2981 RMK A01 T03070151  RH  039%=      5-min Rain = 0
KST3 142040Z 21010KT 31/16 A2981 RMK A01 T03090157  RH  040%=      5-min Rain = 0
KST3 142041Z 20011KT 31/15 A2981 RMK A01 T03110151  RH  038%=      5-min Rain = 0
KST3 142042Z 20012KT 31/14 A2981 RMK A01 T03120141  RH  036%=      5-min Rain = 0
KST3 142043Z 20009KT 31/15 A2981 RMK A01 T03100146  RH  037%=      5-min Rain = 0
KST3 142044Z 22014KT 31/14 A2981 RMK A01 T03100144  RH  036%=      5-min Rain = 0
KST3 142045Z 22010KT 31/13 A2981 RMK A01 T03100134  RH  034%=      5-min Rain = 0
KST3 142046Z 22011KT 31/14 A2981 RMK A01 T03090144  RH  037%=      5-min Rain = 0
KST3 142047Z 20011KT 31/15 A2981 RMK A01 T03100150  RH  038%=      5-min Rain = 0
KST3 142048Z 21012KT 31/15 A2981 RMK A01 T03110149  RH  038%=      5-min Rain = 0
KST3 142049Z 21011KT 31/15 A2981 RMK A01 T03110152  RH  038%=      5-min Rain = 0
KST3 142050Z 20013KT 31/15 A298 RMK A01 T03110148  RH  037%=      5-min Rain = 0
KST3 142051Z 19009KT 31/15 A298 RMK A01 T03100148  RH  037%=      5-min Rain = 0
KST3 142052Z 20010KT 31/15 A298 RMK A01 T03120154  RH  038%=      5-min Rain = 0
KST3 142053Z 20009KT 31/16 A298 RMK A01 T03120157  RH  039%=      5-min Rain = 0
KST3 142054Z 20009KT 31/16 A298 RMK A01 T03130159  RH  040%=      5-min Rain = 0
KST3 142055Z 21012KT 31/16 A298 RMK A01 T03140162  RH  040%=      5-min Rain = 0
KST3 142056Z 20014KT 31/16 A298 RMK A01 T03140158  RH  039%=      5-min Rain = 0
KST3 142057Z 21013KT 31/15 A298 RMK A01 T03140152  RH  038%=      5-min Rain = 0
KST3 142058Z 20011KT 31/16 A298 RMK A01 T03130155  RH  038%=      5-min Rain = 0
KST3 142059Z 19010KT 31/16 A298 RMK A01 T03120155  RH  039%=      5-min Rain = 0
KST3 142100Z 21010KT 31/16 A298 RMK A01 T03120161  RH  040%=      5-min Rain = 0
KST3 142101Z 22013KT 31/15 A298 RMK A01 T03130150  RH  037%=      5-min Rain = 0
KST3 142102Z 21011KT 31/15 A298 RMK A01 T03130151  RH  038%=      5-min Rain = 0
KST3 142103Z 22010KT 31/16 A298 RMK A01 T03120155  RH  039%=      5-min Rain = 0
KST3 142104Z 21013KT 31/16 A298 RMK A01 T03130155  RH  039%=      5-min Rain = 0
KST3 142105Z 21010KT 31/16 A298 RMK A01 T03130157  RH  039%=      5-min Rain = 0
KST3 142106Z 23011KT 31/16 A298 RMK A01 T03140156  RH  038%=      5-min Rain = 0
KST3 142107Z 22011KT 32/16 A298 RMK A01 T03150156  RH  038%=      5-min Rain = 0
KST3 142108Z 22011KT 32/16 A298 RMK A01 T03150161  RH  040%=      5-min Rain = 0
KST3 142109Z 22013KT 32/16 A298 RMK A01 T03150160  RH  039%=      5-min Rain = 0
KST3 142110Z 22012KT 32/15 A298 RMK A01 T03150152  RH  037%=      5-min Rain = 0
KST3 142111Z 22013KT 31/15 A298 RMK A01 T03140153  RH  038%=      5-min Rain = 0
KST3 142112Z 21012KT 31/15 A298 RMK A01 T03140145  RH  036%=      5-min Rain = 0
KST3 142113Z 22012KT 31/15 A298 RMK A01 T03130154  RH  038%=      5-min Rain = 0
KST3 142114Z 21009KT 31/16 A298 RMK A01 T03140155  RH  038%=      5-min Rain = 0
KST3 142115Z 19011KT 31/15 A298 RMK A01 T03140151  RH  037%=      5-min Rain = 0
KST3 142116Z 19013KT 31/15 A298 RMK A01 T03140147  RH  036%=      5-min Rain = 0
KST3 142117Z 20012KT 31/15 A298 RMK A01 T03140150  RH  037%=      5-min Rain = 0
KST3 142118Z 20013KT 31/15 A298 RMK A01 T03140153  RH  038%=      5-min Rain = 0
KST3 142119Z 19011KT 31/15 A298 RMK A01 T03140149  RH  037%=      5-min Rain = 0
KST3 142120Z 19011KT 31/14 A298 RMK A01 T03130143  RH  035%=      5-min Rain = 0
KST3 142121Z 18010KT 31/15 A298 RMK A01 T03130151  RH  037%=      5-min Rain = 0
KST3 142122Z 20010KT 31/15 A298 RMK A01 T03140149  RH  037%=      5-min Rain = 0
KST3 142123Z 19008KT 31/15 A298 RMK A01 T03140148  RH  037%=      5-min Rain = 0
KST3 142124Z 21010KT 32/15 A298 RMK A01 T03150154  RH  038%=      5-min Rain = 0
KST3 142125Z 22014KT 32/15 A298 RMK A01 T03170151  RH  037%=      5-min Rain = 0
KST3 142126Z 21013KT 32/14 A298 RMK A01 T03180142  RH  034%=      5-min Rain = 0
KST3 142127Z 21014KT 32/14 A298 RMK A01 T03170144  RH  035%=      5-min Rain = 0
KST3 142128Z 21012KT 32/14 A298 RMK A01 T03170140  RH  034%=      5-min Rain = 0
KST3 142129Z 21010KT 32/14 A298 RMK A01 T03170138  RH  034%=      5-min Rain = 0
KST3 142130Z 21010KT 32/15 A298 RMK A01 T03170147  RH  036%=      5-min Rain = 0
KST3 142131Z 21008KT 32/16 A298 RMK A01 T03170159  RH  038%=      5-min Rain = 0
KST3 142132Z 22012KT 32/15 A298 RMK A01 T03190154  RH  037%=      5-min Rain = 0
KST3 142133Z 21010KT 32/15 A298 RMK A01 T03200148  RH  035%=      5-min Rain = 0
KST3 142134Z 22010KT 32/16 A298 RMK A01 T03190155  RH  037%=      5-min Rain = 0
KST3 142135Z 20009KT 32/15 A2979 RMK A01 T03200154  RH  037%=      5-min Rain = 0
KST3 142136Z 19011KT 32/15 A2979 RMK A01 T03200150  RH  036%=      5-min Rain = 0
KST3 142137Z 20009KT 32/15 A2979 RMK A01 T03200147  RH  035%=      5-min Rain = 0
KST3 142138Z 20010KT 32/15 A2979 RMK A01 T03200149  RH  036%=      5-min Rain = 0
KST3 142139Z 20009KT 32/15 A2979 RMK A01 T03190146  RH  035%=      5-min Rain = 0
KST3 142140Z 19009KT 32/15 A2979 RMK A01 T03190147  RH  035%=      5-min Rain = 0
KST3 142141Z 19009KT 32/15 A2979 RMK A01 T03190150  RH  036%=      5-min Rain = 0
KST3 142142Z 20008KT 32/15 A2979 RMK A01 T03190147  RH  035%=      5-min Rain = 0
KST3 142143Z 21011KT 32/15 A2979 RMK A01 T03200148  RH  035%=      5-min Rain = 0
KST3 142144Z 22009KT 32/14 A2979 RMK A01 T03190138  RH  033%=      5-min Rain = 0
KST3 142145Z 21008KT 32/15 A2979 RMK A01 T03170154  RH  037%=      5-min Rain = 0
KST3 142146Z 21011KT 32/15 A2979 RMK A01 T03160151  RH  037%=      5-min Rain = 0
KST3 142147Z 21010KT 32/15 A2979 RMK A01 T03160151  RH  037%=      5-min Rain = 0
KST3 142148Z 21011KT 32/15 A2978 RMK A01 T03180148  RH  036%=      5-min Rain = 0
KST3 142149Z 21011KT 32/14 A2978 RMK A01 T03200143  RH  034%=      5-min Rain = 0
KST3 142150Z 20009KT 32/14 A2978 RMK A01 T03200141  RH  034%=      5-min Rain = 0
KST3 142151Z 20009KT 32/15 A2978 RMK A01 T03200148  RH  035%=      5-min Rain = 0
KST3 142152Z 20011KT 32/15 A2978 RMK A01 T03210145  RH  034%=      5-min Rain = 0
KST3 142153Z 20010KT 32/14 A2978 RMK A01 T03220141  RH  034%=      5-min Rain = 0
KST3 142154Z 20009KT 32/15 A2978 RMK A01 T03210153  RH  036%=      5-min Rain = 0
KST3 142155Z 21010KT 32/15 A2978 RMK A01 T03220148  RH  035%=      5-min Rain = 0
KST3 142156Z 20009KT 32/15 A2978 RMK A01 T03220150  RH  035%=      5-min Rain = 0
KST3 142157Z 20009KT 32/15 A2978 RMK A01 T03220151  RH  035%=      5-min Rain = 0
KST3 142158Z 21007KT 32/15 A2978 RMK A01 T03230147  RH  035%=      5-min Rain = 0
KST3 142159Z 21008KT 32/15 A2978 RMK A01 T03230145  RH  034%=      5-min Rain = 0
KST3 142200Z 22008KT 32/14 A2978 RMK A01 T03230140  RH  033%=      5-min Rain = 0
KST3 142201Z 20008KT 32/14 A2978 RMK A01 T03220144  RH  034%=      5-min Rain = 0
KST3 142202Z 21009KT 32/14 A2978 RMK A01 T03220139  RH  033%=      5-min Rain = 0
KST3 142203Z 21007KT 32/14 A2978 RMK A01 T03210142  RH  034%=      5-min Rain = 0
KST3 142204Z 22006KT 32/15 A2978 RMK A01 T03220154  RH  036%=      5-min Rain = 0
KST3 142205Z 21007KT 32/15 A2978 RMK A01 T03240154  RH  036%=      5-min Rain = 0
KST3 142206Z 20007KT 32/15 A2978 RMK A01 T03240150  RH  035%=      5-min Rain = 0
KST3 142207Z 18008KT 33/15 A2978 RMK A01 T03250147  RH  034%=      5-min Rain = 0
KST3 142208Z 20007KT 33/16 A2977 RMK A01 T03250155  RH  036%=      5-min Rain = 0
KST3 142209Z 20005KT 33/15 A2977 RMK A01 T03250148  RH  034%=      5-min Rain = 0
KST3 142210Z 20006KT 32/15 A2977 RMK A01 T03240153  RH  036%=      5-min Rain = 0
KST3 142211Z 20004KT 32/16 A2977 RMK A01 T03240158  RH  037%=      5-min Rain = 0
KST3 142212Z 19005KT 33/16 A2977 RMK A01 T03260160  RH  037%=      5-min Rain = 0
KST3 142213Z 21007KT 33/16 A2977 RMK A01 T03280161  RH  037%=      5-min Rain = 0
KST3 142214Z 22008KT 33/15 A2977 RMK A01 T03290151  RH  034%=      5-min Rain = 0
KST3 142215Z 20008KT 33/15 A2977 RMK A01 T03280150  RH  034%=      5-min Rain = 0
KST3 142216Z 21008KT 33/15 A2977 RMK A01 T03280153  RH  035%=      5-min Rain = 0
KST3 142217Z 22008KT 33/16 A2977 RMK A01 T03280156  RH  035%=      5-min Rain = 0
KST3 142218Z 22010KT 33/15 A2977 RMK A01 T03280151  RH  034%=      5-min Rain = 0
KST3 142219Z 23008KT 33/15 A2977 RMK A01 T03270145  RH  033%=      5-min Rain = 0
KST3 142220Z 22008KT 33/16 A2977 RMK A01 T03260155  RH  036%=      5-min Rain = 0
KST3 142221Z 21008KT 33/15 A2977 RMK A01 T03270154  RH  035%=      5-min Rain = 0
KST3 142222Z 21008KT 33/16 A2977 RMK A01 T03270159  RH  036%=      5-min Rain = 0
KST3 142223Z 22007KT 33/16 A2977 RMK A01 T03280159  RH  036%=      5-min Rain = 0
KST3 142224Z 20006KT 33/16 A2977 RMK A01 T03300164  RH  037%=      5-min Rain = 0
KST3 142225Z 21007KT 33/15 A2977 RMK A01 T03310154  RH  035%=      5-min Rain = 0
KST3 142226Z 21006KT 33/16 A2977 RMK A01 T03300159  RH  036%=      5-min Rain = 0
KST3 142227Z 22005KT 33/17 A2977 RMK A01 T03300167  RH  038%=      5-min Rain = 0
KST3 142228Z 21007KT 33/16 A2977 RMK A01 T03310159  RH  036%=      5-min Rain = 0
KST3 142229Z 21009KT 33/16 A2977 RMK A01 T03310157  RH  035%=      5-min Rain = 0
KST3 142230Z 21007KT 33/16 A2977 RMK A01 T03300158  RH  036%=      5-min Rain = 0
KST3 142231Z 21007KT 33/15 A2977 RMK A01 T03290152  RH  035%=      5-min Rain = 0
KST3 142232Z 22006KT 33/15 A2977 RMK A01 T03290151  RH  034%=      5-min Rain = 0
KST3 142233Z 22007KT 33/15 A2976 RMK A01 T03280149  RH  034%=      5-min Rain = 0
KST3 142234Z 20008KT 33/16 A2976 RMK A01 T03280158  RH  036%=      5-min Rain = 0
KST3 142235Z 20006KT 33/16 A2976 RMK A01 T03290158  RH  036%=      5-min Rain = 0
KST3 142236Z 21006KT 33/16 A2976 RMK A01 T03290157  RH  035%=      5-min Rain = 0
KST3 142237Z 21006KT 33/16 A2976 RMK A01 T03300155  RH  035%=      5-min Rain = 0
KST3 142238Z 21006KT 33/16 A2976 RMK A01 T03290161  RH  037%=      5-min Rain = 0
KST3 142239Z 20006KT 33/16 A2976 RMK A01 T03270161  RH  037%=      5-min Rain = 0
KST3 142240Z 20006KT 33/15 A2976 RMK A01 T03250153  RH  035%=      5-min Rain = 0
KST3 142241Z 19005KT 32/16 A2976 RMK A01 T03240159  RH  037%=      5-min Rain = 0
KST3 142242Z 19006KT 32/16 A2976 RMK A01 T03230157  RH  037%=      5-min Rain = 0
KST3 142243Z 18005KT 32/16 A2976 RMK A01 T03220155  RH  037%=      5-min Rain = 0
KST3 142244Z 20004KT 32/16 A2976 RMK A01 T03220160  RH  038%=      5-min Rain = 0
KST3 142245Z 20005KT 32/17 A2976 RMK A01 T03220166  RH  039%=      5-min Rain = 0
KST3 142246Z 20005KT 32/17 A2976 RMK A01 T03210168  RH  040%=      5-min Rain = 0
KST3 142247Z 20006KT 32/17 A2976 RMK A01 T03200165  RH  039%=      5-min Rain = 0
KST3 142248Z 20005KT 32/17 A2976 RMK A01 T03190166  RH  040%=      5-min Rain = 0
KST3 142249Z 20004KT 32/16 A2976 RMK A01 T03180161  RH  039%=      5-min Rain = 0
KST3 142250Z 21003KT 32/17 A2976 RMK A01 T03180169  RH  041%=      5-min Rain = 0
KST3 142251Z 20004KT 32/17 A2976 RMK A01 T03180170  RH  041%=      5-min Rain = 0
KST3 142252Z 19005KT 32/16 A2976 RMK A01 T03180158  RH  038%=      5-min Rain = 0
KST3 142253Z 20005KT 32/15 A2976 RMK A01 T03180154  RH  037%=      5-min Rain = 0
KST3 142254Z 20004KT 32/16 A2976 RMK A01 T03180157  RH  038%=      5-min Rain = 0
KST3 142255Z 20003KT 32/17 A2976 RMK A01 T03180170  RH  041%=      5-min Rain = 0
KST3 142256Z 20003KT 32/17 A2976 RMK A01 T03180169  RH  041%=      5-min Rain = 0
KST3 142257Z 21004KT 32/17 A2976 RMK A01 T03170169  RH  041%=      5-min Rain = 0
KST3 142258Z 20005KT 32/17 A2975 RMK A01 T03160174  RH  043%=      5-min Rain = 0
KST3 142259Z 20004KT 32/17 A2975 RMK A01 T03160169  RH  041%=      5-min Rain = 0
KST3 142300Z 20004KT 32/17 A2975 RMK A01 T03160166  RH  040%=      5-min Rain = 0
KST3 142301Z 19004KT 32/17 A2975 RMK A01 T03170173  RH  042%=      5-min Rain = 0
KST3 142302Z 19003KT 32/17 A2975 RMK A01 T03170170  RH  041%=      5-min Rain = 0
KST3 142303Z 19004KT 32/17 A2975 RMK A01 T03180170  RH  041%=      5-min Rain = 0
KST3 142304Z 19005KT 32/16 A2975 RMK A01 T03190164  RH  040%=      5-min Rain = 0
KST3 142305Z 19005KT 32/17 A2975 RMK A01 T03200172  RH  041%=      5-min Rain = 0
KST3 142306Z 19005KT 32/17 A2975 RMK A01 T03210172  RH  041%=      5-min Rain = 0
KST3 142307Z 20005KT 32/17 A2975 RMK A01 T03220171  RH  041%=      5-min Rain = 0
KST3 142308Z 19005KT 32/17 A2975 RMK A01 T03230174  RH  041%=      5-min Rain = 0
KST3 142309Z 19006KT 32/17 A2975 RMK A01 T03230168  RH  039%=      5-min Rain = 0
KST3 142310Z 18006KT 32/17 A2975 RMK A01 T03240165  RH  039%=      5-min Rain = 0
KST3 142311Z 19005KT 32/17 A2975 RMK A01 T03240170  RH  040%=      5-min Rain = 0
KST3 142312Z 18008KT 32/16 A2975 RMK A01 T03240156  RH  036%=      5-min Rain = 0
KST3 142313Z 18007KT 33/16 A2975 RMK A01 T03250155  RH  036%=      5-min Rain = 0
KST3 142314Z 18007KT 33/16 A2975 RMK A01 T03250158  RH  037%=      5-min Rain = 0
KST3 142315Z 17009KT 33/15 A2975 RMK A01 T03250153  RH  036%=      5-min Rain = 0
KST3 142316Z 18010KT 33/15 A2975 RMK A01 T03250147  RH  034%=      5-min Rain = 0
KST3 142317Z 18008KT 33/15 A2975 RMK A01 T03250150  RH  035%=      5-min Rain = 0
KST3 142318Z 18008KT 33/15 A2975 RMK A01 T03250151  RH  035%=      5-min Rain = 0
KST3 142319Z 18009KT 32/15 A2975 RMK A01 T03240150  RH  035%=      5-min Rain = 0
KST3 142320Z 17010KT 33/15 A2975 RMK A01 T03250148  RH  034%=      5-min Rain = 0
KST3 142321Z 17009KT 32/15 A2975 RMK A01 T03240149  RH  035%=      5-min Rain = 0
KST3 142322Z 16010KT 32/15 A2975 RMK A01 T03240151  RH  035%=      5-min Rain = 0
KST3 142323Z 17008KT 32/15 A2974 RMK A01 T03230151  RH  035%=      5-min Rain = 0
KST3 142324Z 17010KT 32/15 A2974 RMK A01 T03230146  RH  034%=      5-min Rain = 0
KST3 142325Z 17009KT 32/15 A2974 RMK A01 T03230150  RH  035%=      5-min Rain = 0
KST3 142326Z 17009KT 32/15 A2974 RMK A01 T03230149  RH  035%=      5-min Rain = 0
KST3 142327Z 17009KT 32/15 A2974 RMK A01 T03230148  RH  035%=      5-min Rain = 0
KST3 142328Z 17009KT 32/15 A2974 RMK A01 T03230149  RH  035%=      5-min Rain = 0
KST3 142329Z 17009KT 32/15 A2974 RMK A01 T03230151  RH  036%=      5-min Rain = 0
KST3 142330Z 17010KT 32/15 A2974 RMK A01 T03220149  RH  035%=      5-min Rain = 0
KST3 142331Z 17009KT 32/15 A2974 RMK A01 T03210153  RH  036%=      5-min Rain = 0
KST3 142332Z 17011KT 32/15 A2974 RMK A01 T03200151  RH  036%=      5-min Rain = 0
KST3 142333Z 17010KT 32/15 A2974 RMK A01 T03190150  RH  036%=      5-min Rain = 0
KST3 142334Z 17011KT 32/15 A2974 RMK A01 T03180151  RH  036%=      5-min Rain = 0
KST3 142335Z 17013KT 32/15 A2974 RMK A01 T03180148  RH  036%=      5-min Rain = 0
KST3 142336Z 17011KT 32/15 A2974 RMK A01 T03180149  RH  036%=      5-min Rain = 0
KST3 142337Z 16013KT 32/15 A2974 RMK A01 T03170150  RH  037%=      5-min Rain = 0
KST3 142338Z 17011KT 32/15 A2974 RMK A01 T03160149  RH  036%=      5-min Rain = 0
KST3 142339Z 17012KT 32/15 A2974 RMK A01 T03160149  RH  036%=      5-min Rain = 0
KST3 142340Z 17011KT 32/15 A2974 RMK A01 T03160148  RH  036%=      5-min Rain = 0
KST3 142341Z 17012KT 32/15 A2974 RMK A01 T03160147  RH  036%=      5-min Rain = 0
KST3 142342Z 16011KT 32/15 A2974 RMK A01 T03160148  RH  036%=      5-min Rain = 0
KST3 142343Z 17011KT 32/15 A2974 RMK A01 T03160147  RH  036%=      5-min Rain = 0
KST3 142344Z 16010KT 32/15 A2974 RMK A01 T03150151  RH  037%=      5-min Rain = 0
KST3 142345Z 16010KT 31/15 A2974 RMK A01 T03140148  RH  037%=      5-min Rain = 0
KST3 142346Z 16010KT 31/15 A2974 RMK A01 T03130149  RH  037%=      5-min Rain = 0
KST3 142347Z 16012KT 31/15 A2973 RMK A01 T03130148  RH  037%=      5-min Rain = 0
KST3 142348Z 17012KT 31/15 A2973 RMK A01 T03140148  RH  037%=      5-min Rain = 0
KST3 142349Z 16010KT 31/15 A2973 RMK A01 T03130149  RH  037%=      5-min Rain = 0
KST3 142350Z 16010KT 31/15 A2973 RMK A01 T03130152  RH  038%=      5-min Rain = 0
KST3 142351Z 16009KT 31/15 A2973 RMK A01 T03120154  RH  038%=      5-min Rain = 0
KST3 142352Z 16010KT 31/15 A2973 RMK A01 T03100154  RH  039%=      5-min Rain = 0
KST3 142353Z 16010KT 31/15 A2973 RMK A01 T03100153  RH  039%=      5-min Rain = 0
KST3 142354Z 16008KT 31/16 A2973 RMK A01 T03090157  RH  040%=      5-min Rain = 0
KST3 142355Z 16009KT 31/16 A2973 RMK A01 T03080155  RH  040%=      5-min Rain = 0
KST3 142356Z 16009KT 31/16 A2973 RMK A01 T03080157  RH  040%=      5-min Rain = 0
KST3 142357Z 15008KT 31/16 A2973 RMK A01 T03070159  RH  041%=      5-min Rain = 0
KST3 142358Z 16009KT 31/16 A2973 RMK A01 T03060158  RH  041%=      5-min Rain = 0
KST3 142359Z 16009KT 31/16 A2973 RMK A01 T03060158  RH  041%=      5-min Rain = 0
KST3 150000Z 16009KT 31/16 A2973 RMK A01 T03050162  RH  042%=      5-min Rain = 0
KST3 150001Z 16009KT 30/16 A2973 RMK A01 T03040163  RH  042%=      5-min Rain = 0
KST3 150002Z 16012KT 30/16 A2973 RMK A01 T03040162  RH  042%=      5-min Rain = 0
KST3 150003Z 17013KT 31/16 A2973 RMK A01 T03050161  RH  042%=      5-min Rain = 0
KST3 150004Z 16012KT 31/16 A2973 RMK A01 T03060163  RH  042%=      5-min Rain = 0
KST3 150005Z 16014KT 31/16 A2973 RMK A01 T03070164  RH  042%=      5-min Rain = 0
KST3 150006Z 16011KT 31/17 A2973 RMK A01 T03070166  RH  043%=      5-min Rain = 0
KST3 150007Z 16012KT 31/17 A2973 RMK A01 T03070167  RH  043%=      5-min Rain = 0
KST3 150008Z 16012KT 31/17 A2973 RMK A01 T03070167  RH  043%=      5-min Rain = 0
KST3 150009Z 16010KT 31/17 A2973 RMK A01 T03070169  RH  044%=      5-min Rain = 0
KST3 150010Z 16009KT 31/17 A2973 RMK A01 T03060170  RH  044%=      5-min Rain = 0
KST3 150011Z 16012KT 31/17 A2972 RMK A01 T03050170  RH  044%=      5-min Rain = 0
KST3 150012Z 16011KT 31/17 A2972 RMK A01 T03050168  RH  044%=      5-min Rain = 0
KST3 150013Z 16010KT 31/17 A2972 RMK A01 T03060171  RH  045%=      5-min Rain = 0
KST3 150014Z 16012KT 31/17 A2972 RMK A01 T03060171  RH  045%=      5-min Rain = 0
KST3 150015Z 16012KT 31/17 A2972 RMK A01 T03060171  RH  045%=      5-min Rain = 0
KST3 150016Z 16011KT 31/17 A2972 RMK A01 T03060173  RH  045%=      5-min Rain = 0
KST3 150017Z 16012KT 31/17 A2972 RMK A01 T03050172  RH  045%=      5-min Rain = 0
KST3 150018Z 17011KT 31/17 A2973 RMK A01 T03050172  RH  045%=      5-min Rain = 0
KST3 150019Z 17011KT 31/17 A2973 RMK A01 T03050172  RH  045%=      5-min Rain = 0
KST3 150020Z 17011KT 31/17 A2973 RMK A01 T03050172  RH  045%=      5-min Rain = 0
KST3 150021Z 17009KT 31/17 A2972 RMK A01 T03050170  RH  044%=      5-min Rain = 0
KST3 150022Z 16009KT 31/17 A2973 RMK A01 T03050172  RH  045%=      5-min Rain = 0
KST3 150023Z 17009KT 31/17 A2973 RMK A01 T03050173  RH  045%=      5-min Rain = 0
KST3 150024Z 16008KT 31/17 A2973 RMK A01 T03050173  RH  045%=      5-min Rain = 0
KST3 150025Z 16009KT 30/17 A2973 RMK A01 T03040170  RH  045%=      5-min Rain = 0
KST3 150026Z 16008KT 30/17 A2972 RMK A01 T03040172  RH  045%=      5-min Rain = 0
KST3 150027Z 16009KT 30/17 A2972 RMK A01 T03030172  RH  045%=      5-min Rain = 0
KST3 150028Z 16009KT 30/17 A2973 RMK A01 T03030174  RH  046%=      5-min Rain = 0
KST3 150029Z 16009KT 30/17 A2972 RMK A01 T03020173  RH  046%=      5-min Rain = 0
KST3 150030Z 16009KT 30/17 A2972 RMK A01 T03020173  RH  046%=      5-min Rain = 0
KST3 150031Z 16010KT 30/17 A2972 RMK A01 T03020171  RH  045%=      5-min Rain = 0
KST3 150032Z 16009KT 30/17 A2972 RMK A01 T03020170  RH  045%=      5-min Rain = 0
KST3 150033Z 16010KT 30/17 A2972 RMK A01 T03020172  RH  046%=      5-min Rain = 0
KST3 150034Z 16009KT 30/17 A2972 RMK A01 T03010171  RH  046%=      5-min Rain = 0
KST3 150035Z 16010KT 30/17 A2972 RMK A01 T03010171  RH  045%=      5-min Rain = 0
KST3 150036Z 15008KT 30/17 A2972 RMK A01 T03010170  RH  045%=      5-min Rain = 0
KST3 150037Z 15009KT 30/17 A2972 RMK A01 T03010169  RH  045%=      5-min Rain = 0
KST3 150038Z 16009KT 30/17 A2972 RMK A01 T03010171  RH  046%=      5-min Rain = 0
KST3 150039Z 16009KT 30/17 A2972 RMK A01 T03000171  RH  046%=      5-min Rain = 0
KST3 150040Z 17012KT 30/16 A2972 RMK A01 T03000164  RH  044%=      5-min Rain = 0
KST3 150041Z 16012KT 30/16 A2972 RMK A01 T03020164  RH  043%=      5-min Rain = 0
KST3 150042Z 16013KT 30/16 A2972 RMK A01 T03020161  RH  042%=      5-min Rain = 0
KST3 150043Z 17013KT 30/16 A2972 RMK A01 T03030157  RH  041%=      5-min Rain = 0
KST3 150044Z 16014KT 30/15 A2972 RMK A01 T03030153  RH  040%=      5-min Rain = 0
KST3 150045Z 16013KT 30/15 A2972 RMK A01 T03040151  RH  039%=      5-min Rain = 0
KST3 150046Z 16013G21KT 30/15 A2972 RMK A01 T03040149  RH  039%=      5-min Rain = 0
KST3 150047Z 17016KT 31/14 A2972 RMK A01 T03050140  RH  037%=      5-min Rain = 0
KST3 150048Z 17013KT 31/14 A2972 RMK A01 T03060140  RH  036%=      5-min Rain = 0
KST3 150049Z 17015KT 31/14 A2972 RMK A01 T03060138  RH  036%=      5-min Rain = 0
KST3 150050Z 17013KT 31/14 A2972 RMK A01 T03060139  RH  036%=      5-min Rain = 0
KST3 150051Z 16012KT 31/14 A2972 RMK A01 T03050139  RH  036%=      5-min Rain = 0
KST3 150052Z 17011KT 30/14 A2972 RMK A01 T03040139  RH  036%=      5-min Rain = 0
KST3 150053Z 16010KT 30/14 A2972 RMK A01 T03040141  RH  037%=      5-min Rain = 0
KST3 150054Z 17015KT 30/14 A2972 RMK A01 T03020138  RH  037%=      5-min Rain = 0
KST3 150055Z 17013KT 30/14 A2972 RMK A01 T03030136  RH  036%=      5-min Rain = 0
KST3 150056Z 16010KT 30/14 A2972 RMK A01 T03030138  RH  036%=      5-min Rain = 0
KST3 150057Z 16009KT 30/14 A2972 RMK A01 T03020141  RH  037%=      5-min Rain = 0
KST3 150058Z 16009KT 30/14 A2972 RMK A01 T03010141  RH  038%=      5-min Rain = 0
KST3 150059Z 16011KT 30/14 A2972 RMK A01 T02990139  RH  038%=      5-min Rain = 0
KST3 150100Z 16013KT 30/14 A2972 RMK A01 T02990139  RH  037%=      5-min Rain = 0
KST3 150101Z 16013KT 30/14 A2972 RMK A01 T02990136  RH  037%=      5-min Rain = 0
KST3 150102Z 16013KT 30/14 A2972 RMK A01 T02990135  RH  037%=      5-min Rain = 0
KST3 150103Z 16014KT 30/13 A2972 RMK A01 T02990133  RH  036%=      5-min Rain = 0
KST3 150104Z 17014KT 30/13 A2972 RMK A01 T02990133  RH  036%=      5-min Rain = 0
KST3 150105Z 16012KT 30/13 A2972 RMK A01 T03000133  RH  036%=      5-min Rain = 0
KST3 150106Z 16013KT 30/13 A2972 RMK A01 T03000133  RH  036%=      5-min Rain = 0
KST3 150107Z 17013KT 30/13 A2972 RMK A01 T02980133  RH  036%=      5-min Rain = 0
KST3 150108Z 17015KT 30/13 A2971 RMK A01 T02980130  RH  036%=      5-min Rain = 0
KST3 150109Z 17013KT 30/13 A2971 RMK A01 T02980129  RH  035%=      5-min Rain = 0
KST3 150110Z 17012KT 30/13 A2971 RMK A01 T02990130  RH  035%=      5-min Rain = 0
KST3 150111Z 17012KT 30/13 A2971 RMK A01 T02990131  RH  036%=      5-min Rain = 0
KST3 150112Z 17013KT 30/13 A2971 RMK A01 T02980130  RH  036%=      5-min Rain = 0
KST3 150113Z 16014KT 30/13 A2971 RMK A01 T02970131  RH  036%=      5-min Rain = 0
KST3 150114Z 17013KT 30/13 A2971 RMK A01 T02970130  RH  036%=      5-min Rain = 0
KST3 150115Z 17012KT 30/13 A2971 RMK A01 T02970131  RH  036%=      5-min Rain = 0
KST3 150116Z 16014KT 30/13 A2971 RMK A01 T02960130  RH  036%=      5-min Rain = 0
KST3 150117Z 17013KT 30/13 A2971 RMK A01 T02960130  RH  036%=      5-min Rain = 0
KST3 150118Z 17013KT 30/13 A2971 RMK A01 T02950131  RH  036%=      5-min Rain = 0
KST3 150119Z 17013KT 30/13 A2971 RMK A01 T02950132  RH  037%=      5-min Rain = 0
KST3 150120Z 16015KT 29/13 A2971 RMK A01 T02940131  RH  037%=      5-min Rain = 0
KST3 150121Z 17017KT 29/13 A2971 RMK A01 T02940130  RH  037%=      5-min Rain = 0
KST3 150122Z 17018KT 30/13 A2971 RMK A01 T02950130  RH  036%=      5-min Rain = 0
KST3 150123Z 17017KT 30/13 A2971 RMK A01 T02960130  RH  036%=      5-min Rain = 0
KST3 150124Z 17013KT 30/13 A2971 RMK A01 T02960131  RH  036%=      5-min Rain = 0
KST3 150125Z 17011KT 30/13 A2971 RMK A01 T02960133  RH  037%=      5-min Rain = 0
KST3 150126Z 17012KT 29/13 A2971 RMK A01 T02940134  RH  038%=      5-min Rain = 0
KST3 150127Z 17016KT 29/13 A2971 RMK A01 T02920134  RH  038%=      5-min Rain = 0
KST3 150128Z 17013KT 29/13 A2971 RMK A01 T02920133  RH  038%=      5-min Rain = 0
KST3 150129Z 18011KT 29/13 A2971 RMK A01 T02920134  RH  038%=      5-min Rain = 0
KST3 150130Z 17012KT 29/14 A2971 RMK A01 T02920136  RH  038%=      5-min Rain = 0
KST3 150131Z 17012KT 29/14 A2971 RMK A01 T02910136  RH  039%=      5-min Rain = 0
KST3 150132Z 17013KT 29/14 A2971 RMK A01 T02900136  RH  039%=      5-min Rain = 0
KST3 150133Z 17014KT 29/14 A2971 RMK A01 T02900135  RH  039%=      5-min Rain = 0
KST3 150134Z 17016G21KT 29/14 A2971 RMK A01 T02910136  RH  039%=      5-min Rain = 0
KST3 150135Z 17015KT 29/14 A2971 RMK A01 T02910135  RH  038%=      5-min Rain = 0
KST3 150136Z 17016KT 29/14 A2971 RMK A01 T02920136  RH  039%=      5-min Rain = 0
KST3 150137Z 17012KT 29/14 A2971 RMK A01 T02910137  RH  039%=      5-min Rain = 0
KST3 150138Z 17014G19KT 29/14 A2971 RMK A01 T02910138  RH  039%=      5-min Rain = 0
KST3 150139Z 17014KT 29/14 A2971 RMK A01 T02900138  RH  039%=      5-min Rain = 0
KST3 150140Z 18015G20KT 29/14 A2971 RMK A01 T02900137  RH  039%=      5-min Rain = 0
KST3 150141Z 17013KT 29/14 A2971 RMK A01 T02900138  RH  039%=      5-min Rain = 0
KST3 150142Z 17013KT 29/14 A2971 RMK A01 T02900138  RH  039%=      5-min Rain = 0
KST3 150143Z 17015G20KT 29/14 A2971 RMK A01 T02900138  RH  039%=      5-min Rain = 0
KST3 150144Z 17016KT 29/14 A2971 RMK A01 T02900138  RH  039%=      5-min Rain = 0
KST3 150145Z 17016KT 29/14 A2971 RMK A01 T02900138  RH  039%=      5-min Rain = 0
KST3 150146Z 18016KT 29/14 A2971 RMK A01 T02900138  RH  039%=      5-min Rain = 0
KST3 150147Z 17013KT 29/14 A2971 RMK A01 T02900138  RH  039%=      5-min Rain = 0
KST3 150148Z 17014KT 29/14 A2971 RMK A01 T02900140  RH  040%=      5-min Rain = 0
KST3 150149Z 17015KT 29/14 A2971 RMK A01 T02890139  RH  040%=      5-min Rain = 0
KST3 150150Z 17012KT 29/14 A2971 RMK A01 T02890140  RH  040%=      5-min Rain = 0
KST3 150151Z 17012KT 29/14 A2971 RMK A01 T02870139  RH  040%=      5-min Rain = 0
KST3 150152Z 17013G18KT 29/14 A2971 RMK A01 T02870140  RH  041%=      5-min Rain = 0
KST3 150153Z 17015G22KT 29/14 A2971 RMK A01 T02860139  RH  040%=      5-min Rain = 0
KST3 150154Z 17016KT 29/14 A2971 RMK A01 T02860139  RH  040%=      5-min Rain = 0
KST3 150155Z 18016KT 29/14 A2971 RMK A01 T02870139  RH  040%=      5-min Rain = 0
KST3 150156Z 17016KT 29/14 A2971 RMK A01 T02870139  RH  040%=      5-min Rain = 0
KST3 150157Z 18015G20KT 29/14 A2971 RMK A01 T02870139  RH  040%=      5-min Rain = 0
KST3 150158Z 17013KT 29/14 A2971 RMK A01 T02870140  RH  040%=      5-min Rain = 0
KST3 150159Z 17015KT 29/14 A2971 RMK A01 T02870140  RH  041%=      5-min Rain = 0
KST3 150200Z 18012KT 29/14 A2971 RMK A01 T02860140  RH  041%=      5-min Rain = 0
KST3 150201Z 17012G17KT 29/14 A2971 RMK A01 T02850140  RH  041%=      5-min Rain = 0
KST3 150202Z 18014KT 29/14 A2971 RMK A01 T02850140  RH  041%=      5-min Rain = 0
KST3 150203Z 17015G21KT 29/14 A2971 RMK A01 T02850139  RH  041%=      5-min Rain = 0
KST3 150204Z 18014KT 29/14 A2971 RMK A01 T02850139  RH  041%=      5-min Rain = 0
KST3 150205Z 17015G20KT 29/14 A2971 RMK A01 T02850139  RH  041%=      5-min Rain = 0
KST3 150206Z 17016KT 29/14 A2971 RMK A01 T02860139  RH  041%=      5-min Rain = 0
KST3 150207Z 17015G20KT 29/14 A2971 RMK A01 T02860139  RH  040%=      5-min Rain = 0
KST3 150208Z 17015G23KT 29/14 A2971 RMK A01 T02860139  RH  041%=      5-min Rain = 0
KST3 150209Z 18016KT 29/14 A2971 RMK A01 T02860139  RH  041%=      5-min Rain = 0
KST3 150210Z 18016G21KT 29/14 A2971 RMK A01 T02860139  RH  041%=      5-min Rain = 0
KST3 150211Z 18014G19KT 29/14 A2971 RMK A01 T02850139  RH  041%=      5-min Rain = 0
KST3 150212Z 19014G20KT 29/14 A2971 RMK A01 T02850140  RH  041%=      5-min Rain = 0
KST3 150213Z 18017KT 29/14 A2971 RMK A01 T02850138  RH  041%=      5-min Rain = 0
KST3 150214Z 19013KT 29/14 A2971 RMK A01 T02850139  RH  041%=      5-min Rain = 0
KST3 150215Z 18013G18KT 29/14 A2971 RMK A01 T02850139  RH  041%=      5-min Rain = 0
KST3 150216Z 18012KT 28/14 A2971 RMK A01 T02840139  RH  041%=      5-min Rain = 0
KST3 150217Z 18013KT 28/14 A2971 RMK A01 T02830139  RH  041%=      5-min Rain = 0
KST3 150218Z 18013KT 28/14 A2971 RMK A01 T02820139  RH  041%=      5-min Rain = 0
KST3 150219Z 18013KT 28/14 A2971 RMK A01 T02820139  RH  041%=      5-min Rain = 0
KST3 150220Z 18015KT 28/14 A2971 RMK A01 T02820138  RH  041%=      5-min Rain = 0
KST3 150221Z 18016KT 28/14 A2971 RMK A01 T02820138  RH  041%=      5-min Rain = 0
KST3 150222Z 18017KT 28/14 A2971 RMK A01 T02830138  RH  041%=      5-min Rain = 0
KST3 150223Z 18015G20KT 28/14 A2971 RMK A01 T02830137  RH  041%=      5-min Rain = 0
KST3 150224Z 18015KT 28/14 A2971 RMK A01 T02840138  RH  041%=      5-min Rain = 0
KST3 150225Z 18013KT 28/14 A2971 RMK A01 T02840138  RH  041%=      5-min Rain = 0
KST3 150226Z 18015KT 28/14 A2971 RMK A01 T02830138  RH  041%=      5-min Rain = 0
KST3 150227Z 18016KT 28/14 A2971 RMK A01 T02830138  RH  041%=      5-min Rain = 0
KST3 150228Z 18013KT 28/14 A2971 RMK A01 T02830137  RH  041%=      5-min Rain = 0
KST3 150229Z 17015KT 28/14 A2971 RMK A01 T02820138  RH  041%=      5-min Rain = 0
KST3 150230Z 17016KT 28/14 A2971 RMK A01 T02820138  RH  041%=      5-min Rain = 0
KST3 150231Z 18014KT 28/14 A2971 RMK A01 T02820138  RH  041%=      5-min Rain = 0
KST3 150232Z 17015KT 28/14 A2971 RMK A01 T02810138  RH  041%=      5-min Rain = 0
KST3 150233Z 17017KT 28/14 A2971 RMK A01 T02810138  RH  041%=      5-min Rain = 0
KST3 150234Z 17016G21KT 28/14 A2971 RMK A01 T02810138  RH  042%=      5-min Rain = 0
KST3 150235Z 17016KT 28/14 A2971 RMK A01 T02810138  RH  042%=      5-min Rain = 0
KST3 150236Z 17018KT 28/14 A2971 RMK A01 T02800138  RH  042%=      5-min Rain = 0
KST3 150237Z 17018KT 28/14 A2971 RMK A01 T02800138  RH  042%=      5-min Rain = 0
KST3 150238Z 17018KT 28/14 A2971 RMK A01 T02800138  RH  042%=      5-min Rain = 0
KST3 150239Z 17019KT 28/14 A2971 RMK A01 T02790138  RH  042%=      5-min Rain = 0
KST3 150240Z 17018KT 28/14 A2971 RMK A01 T02790138  RH  042%=      5-min Rain = 0
KST3 150241Z 17018KT 28/14 A2971 RMK A01 T02790138  RH  042%=      5-min Rain = 0
KST3 150242Z 17018KT 28/14 A2971 RMK A01 T02790138  RH  042%=      5-min Rain = 0
KST3 150243Z 18014KT 28/14 A2971 RMK A01 T02790138  RH  042%=      5-min Rain = 0
KST3 150244Z 18016G21KT 28/14 A2971 RMK A01 T02770138  RH  042%=      5-min Rain = 0
KST3 150245Z 18015G21KT 28/14 A2971 RMK A01 T02770139  RH  043%=      5-min Rain = 0
KST3 150246Z 18015KT 28/14 A2971 RMK A01 T02770139  RH  043%=      5-min Rain = 0
KST3 150247Z 18015G20KT 28/14 A2971 RMK A01 T02770139  RH  043%=      5-min Rain = 0
KST3 150248Z 18014KT 28/14 A2971 RMK A01 T02760139  RH  043%=      5-min Rain = 0
KST3 150249Z 18015KT 28/14 A2971 RMK A01 T02750139  RH  043%=      5-min Rain = 0
KST3 150250Z 18013G18KT 27/14 A2971 RMK A01 T02740139  RH  043%=      5-min Rain = 0
KST3 150251Z 18015KT 27/14 A2971 RMK A01 T02740139  RH  044%=      5-min Rain = 0
KST3 150252Z 18012KT 27/14 A2971 RMK A01 T02730139  RH  044%=      5-min Rain = 0
KST3 150253Z 18015KT 27/14 A2971 RMK A01 T02720140  RH  044%=      5-min Rain = 0
KST3 150254Z 18013G19KT 27/14 A2972 RMK A01 T02720139  RH  044%=      5-min Rain = 0
KST3 150255Z 18012KT 27/14 A2972 RMK A01 T02720140  RH  044%=      5-min Rain = 0
KST3 150256Z 18013KT 27/14 A2972 RMK A01 T02710140  RH  045%=      5-min Rain = 0
KST3 150257Z 17016G21KT 27/14 A2972 RMK A01 T02700140  RH  045%=      5-min Rain = 0
KST3 150258Z 18013KT 27/14 A2972 RMK A01 T02700140  RH  045%=      5-min Rain = 0
KST3 150259Z 18013KT 27/14 A2972 RMK A01 T02700140  RH  045%=      5-min Rain = 0
KST3 150300Z 18014KT 27/14 A2972 RMK A01 T02700140  RH  045%=      5-min Rain = 0
KST3 150301Z 18012KT 27/14 A2972 RMK A01 T02700141  RH  045%=      5-min Rain = 0
KST3 150302Z 18013KT 27/14 A2972 RMK A01 T02690141  RH  045%=      5-min Rain = 0
KST3 150303Z 19013KT 27/14 A2972 RMK A01 T02680141  RH  046%=      5-min Rain = 0
KST3 150304Z 18013KT 27/14 A2972 RMK A01 T02670140  RH  046%=      5-min Rain = 0
KST3 150305Z 18012KT 27/14 A2972 RMK A01 T02670140  RH  046%=      5-min Rain = 0
KST3 150306Z 18013KT 27/14 A2972 RMK A01 T02670141  RH  046%=      5-min Rain = 0
KST3 150307Z 18013KT 27/14 A2972 RMK A01 T02670141  RH  046%=      5-min Rain = 0
KST3 150308Z 18014KT 27/14 A2972 RMK A01 T02670141  RH  046%=      5-min Rain = 0
KST3 150309Z 18012KT 27/14 A2972 RMK A01 T02670141  RH  046%=      5-min Rain = 0
KST3 150310Z 18011KT 27/14 A2972 RMK A01 T02660141  RH  046%=      5-min Rain = 0
KST3 150311Z 17012KT 27/14 A2972 RMK A01 T02660141  RH  046%=      5-min Rain = 0
KST3 150312Z 18011KT 27/14 A2972 RMK A01 T02660141  RH  046%=      5-min Rain = 0
KST3 150313Z 18011KT 27/14 A2972 RMK A01 T02650141  RH  046%=      5-min Rain = 0
KST3 150314Z 17012KT 27/14 A2972 RMK A01 T02650142  RH  047%=      5-min Rain = 0
KST3 150315Z 17012KT 26/14 A2972 RMK A01 T02640141  RH  047%=      5-min Rain = 0
KST3 150316Z 17015KT 26/14 A2972 RMK A01 T02640141  RH  047%=      5-min Rain = 0
KST3 150317Z 18012KT 27/14 A2972 RMK A01 T02650141  RH  046%=      5-min Rain = 0
KST3 150318Z 17011KT 27/14 A2972 RMK A01 T02660141  RH  046%=      5-min Rain = 0
KST3 150319Z 17012KT 27/14 A2972 RMK A01 T02660142  RH  047%=      5-min Rain = 0
KST3 150320Z 17010KT 27/14 A2972 RMK A01 T02650142  RH  047%=      5-min Rain = 0
KST3 150321Z 17012KT 27/14 A2972 RMK A01 T02650143  RH  047%=      5-min Rain = 0
KST3 150322Z 17012KT 26/14 A2972 RMK A01 T02640144  RH  048%=      5-min Rain = 0
KST3 150323Z 18014KT 26/14 A2972 RMK A01 T02630144  RH  048%=      5-min Rain = 0
KST3 150324Z 17013KT 26/14 A2972 RMK A01 T02630143  RH  048%=      5-min Rain = 0
KST3 150325Z 17013KT 27/14 A2972 RMK A01 T02650144  RH  047%=      5-min Rain = 0
KST3 150326Z 17014KT 27/14 A2972 RMK A01 T02650144  RH  047%=      5-min Rain = 0
KST3 150327Z 18013KT 27/15 A2972 RMK A01 T02650145  RH  048%=      5-min Rain = 0
KST3 150328Z 17014KT 27/15 A2972 RMK A01 T02650146  RH  048%=      5-min Rain = 0
KST3 150329Z 17014KT 26/15 A2972 RMK A01 T02640146  RH  048%=      5-min Rain = 0
KST3 150330Z 17013KT 26/15 A2972 RMK A01 T02640147  RH  049%=      5-min Rain = 0
KST3 150331Z 18014KT 26/15 A2972 RMK A01 T02630148  RH  049%=      5-min Rain = 0
KST3 150332Z 17013KT 26/15 A2972 RMK A01 T02620148  RH  049%=      5-min Rain = 0
KST3 150333Z 17014KT 26/15 A2972 RMK A01 T02630149  RH  050%=      5-min Rain = 0
KST3 150334Z 18015KT 26/15 A2972 RMK A01 T02620150  RH  050%=      5-min Rain = 0
KST3 150335Z 18015G21KT 26/15 A2972 RMK A01 T02620151  RH  050%=      5-min Rain = 0
KST3 150336Z 18015KT 26/15 A2972 RMK A01 T02620152  RH  051%=      5-min Rain = 0
KST3 150337Z 18016G21KT 26/15 A2972 RMK A01 T02620153  RH  051%=      5-min Rain = 0
KST3 150338Z 18016KT 26/15 A2972 RMK A01 T02620154  RH  051%=      5-min Rain = 0
KST3 150339Z 18016KT 26/16 A2972 RMK A01 T02620155  RH  052%=      5-min Rain = 0
KST3 150340Z 18015KT 26/16 A2972 RMK A01 T02610156  RH  052%=      5-min Rain = 0
KST3 150341Z 18014KT 26/16 A2973 RMK A01 T02610157  RH  053%=      5-min Rain = 0
KST3 150342Z 18016KT 26/16 A2973 RMK A01 T02610158  RH  053%=      5-min Rain = 0
KST3 150343Z 18019KT 26/16 A2973 RMK A01 T02600158  RH  053%=      5-min Rain = 0
KST3 150344Z 18018KT 26/16 A2973 RMK A01 T02600159  RH  054%=      5-min Rain = 0
KST3 150345Z 18016G22KT 26/16 A2973 RMK A01 T02610160  RH  054%=      5-min Rain = 0
KST3 150346Z 18020KT 26/16 A2973 RMK A01 T02600161  RH  054%=      5-min Rain = 0
KST3 150347Z 18015G22KT 26/16 A2973 RMK A01 T02600162  RH  055%=      5-min Rain = 0
KST3 150348Z 18015KT 26/16 A2973 RMK A01 T02600163  RH  055%=      5-min Rain = 0
KST3 150349Z 18016KT 26/16 A2973 RMK A01 T02590164  RH  056%=      5-min Rain = 0
KST3 150350Z 18018G24KT 26/17 A2973 RMK A01 T02590165  RH  056%=      5-min Rain = 0
KST3 150351Z 18016KT 26/16 A2973 RMK A01 T02580164  RH  056%=      5-min Rain = 0
KST3 150352Z 18018KT 26/17 A2973 RMK A01 T02580165  RH  056%=      5-min Rain = 0
KST3 150353Z 18017KT 26/17 A2973 RMK A01 T02580166  RH  057%=      5-min Rain = 0
KST3 150354Z 18015KT 26/17 A2973 RMK A01 T02570165  RH  057%=      5-min Rain = 0
KST3 150355Z 18015KT 26/17 A2973 RMK A01 T02570166  RH  057%=      5-min Rain = 0
KST3 150356Z 18015KT 26/17 A2973 RMK A01 T02560166  RH  057%=      5-min Rain = 0
KST3 150357Z 18014G19KT 26/17 A2973 RMK A01 T02570166  RH  057%=      5-min Rain = 0
KST3 150358Z 18014KT 26/17 A2973 RMK A01 T02560166  RH  058%=      5-min Rain = 0
KST3 150359Z 18013KT 26/17 A2973 RMK A01 T02550166  RH  058%=      5-min Rain = 0
KST3 150400Z 18011KT 26/17 A2973 RMK A01 T02550166  RH  058%=      5-min Rain = 0
KST3 150401Z 18012KT 25/17 A2973 RMK A01 T02540167  RH  059%=      5-min Rain = 0
KST3 150402Z 18011KT 25/17 A2973 RMK A01 T02530167  RH  059%=      5-min Rain = 0
KST3 150403Z 18011KT 25/17 A2973 RMK A01 T02530167  RH  059%=      5-min Rain = 0
KST3 150404Z 18011KT 25/17 A2973 RMK A01 T02520167  RH  059%=      5-min Rain = 0
KST3 150405Z 18012KT 25/17 A2973 RMK A01 T02510167  RH  060%=      5-min Rain = 0
KST3 150406Z 18014KT 25/17 A2973 RMK A01 T02510167  RH  060%=      5-min Rain = 0
KST3 150407Z 18011KT 25/17 A2973 RMK A01 T02510167  RH  060%=      5-min Rain = 0
KST3 150408Z 18011KT 25/17 A2973 RMK A01 T02520167  RH  059%=      5-min Rain = 0
KST3 150409Z 18010KT 25/17 A2973 RMK A01 T02520167  RH  060%=      5-min Rain = 0
KST3 150410Z 19012KT 25/17 A2973 RMK A01 T02510168  RH  060%=      5-min Rain = 0
KST3 150411Z 18013KT 25/17 A2973 RMK A01 T02510167  RH  060%=      5-min Rain = 0
KST3 150412Z 18010KT 25/17 A2973 RMK A01 T02510167  RH  059%=      5-min Rain = 0
KST3 150413Z 18010KT 25/17 A2973 RMK A01 T02510167  RH  060%=      5-min Rain = 0
KST3 150414Z 18009KT 25/17 A2973 RMK A01 T02510168  RH  060%=      5-min Rain = 0
KST3 150415Z 18011KT 25/17 A2973 RMK A01 T02500168  RH  060%=      5-min Rain = 0
KST3 150416Z 18010KT 25/17 A2973 RMK A01 T02500168  RH  060%=      5-min Rain = 0
KST3 150417Z 18010KT 25/17 A2974 RMK A01 T02500168  RH  060%=      5-min Rain = 0
KST3 150418Z 18009KT 25/17 A2974 RMK A01 T02500168  RH  061%=      5-min Rain = 0
KST3 150419Z 18011KT 25/17 A2974 RMK A01 T02490169  RH  061%=      5-min Rain = 0
KST3 150420Z 18009KT 25/17 A2974 RMK A01 T02490169  RH  061%=      5-min Rain = 0
KST3 150421Z 18010KT 25/17 A2974 RMK A01 T02490169  RH  061%=      5-min Rain = 0
KST3 150422Z 19011KT 25/17 A2974 RMK A01 T02490168  RH  061%=      5-min Rain = 0
KST3 150423Z 18011KT 25/17 A2974 RMK A01 T02490168  RH  061%=      5-min Rain = 0
KST3 150424Z 18010KT 25/17 A2974 RMK A01 T02500168  RH  060%=      5-min Rain = 0
KST3 150425Z 18010KT 25/17 A2974 RMK A01 T02500168  RH  060%=      5-min Rain = 0
KST3 150426Z 19012KT 25/17 A2974 RMK A01 T02500168  RH  060%=      5-min Rain = 0
KST3 150427Z 19011KT 25/17 A2974 RMK A01 T02500167  RH  060%=      5-min Rain = 0
KST3 150428Z 18013KT 25/17 A2974 RMK A01 T02510166  RH  059%=      5-min Rain = 0
KST3 150429Z 18012KT 25/17 A2974 RMK A01 T02510166  RH  059%=      5-min Rain = 0
KST3 150430Z 19013KT 25/17 A2974 RMK A01 T02520166  RH  059%=      5-min Rain = 0
KST3 150431Z 18013KT 25/17 A2974 RMK A01 T02520166  RH  059%=      5-min Rain = 0
KST3 150432Z 19015KT 25/16 A2974 RMK A01 T02530164  RH  058%=      5-min Rain = 0
KST3 150433Z 18013KT 25/16 A2974 RMK A01 T02530164  RH  058%=      5-min Rain = 0
KST3 150434Z 18014KT 25/16 A2974 RMK A01 T02540164  RH  057%=      5-min Rain = 0
KST3 150435Z 19012KT 25/16 A2974 RMK A01 T02540164  RH  057%=      5-min Rain = 0
KST3 150436Z 19012KT 25/16 A2974 RMK A01 T02530164  RH  058%=      5-min Rain = 0
KST3 150437Z 18014KT 25/16 A2974 RMK A01 T02530164  RH  058%=      5-min Rain = 0
KST3 150438Z 19014KT 25/16 A2974 RMK A01 T02520164  RH  058%=      5-min Rain = 0
KST3 150439Z 18014KT 25/16 A2974 RMK A01 T02520163  RH  058%=      5-min Rain = 0
KST3 150440Z 19014KT 25/16 A2974 RMK A01 T02520163  RH  058%=      5-min Rain = 0
KST3 150441Z 18013KT 25/16 A2974 RMK A01 T02530162  RH  057%=      5-min Rain = 0
KST3 150442Z 19014KT 25/16 A2974 RMK A01 T02530162  RH  057%=      5-min Rain = 0
KST3 150443Z 19013KT 25/16 A2974 RMK A01 T02530162  RH  057%=      5-min Rain = 0
KST3 150444Z 19012KT 25/16 A2974 RMK A01 T02530162  RH  057%=      5-min Rain = 0
KST3 150445Z 19012KT 25/16 A2974 RMK A01 T02530162  RH  057%=      5-min Rain = 0
KST3 150446Z 20012KT 25/16 A2975 RMK A01 T02520161  RH  057%=      5-min Rain = 0
KST3 150447Z 20011G16KT 25/16 A2975 RMK A01 T02520161  RH  057%=      5-min Rain = 0
KST3 150448Z 20010KT 25/16 A2975 RMK A01 T02510161  RH  057%=      5-min Rain = 0
KST3 150449Z 19012KT 25/16 A2976 RMK A01 T02500161  RH  058%=      5-min Rain = 0
KST3 150450Z 19012KT 25/16 A2976 RMK A01 T02500159  RH  057%=      5-min Rain = 0
KST3 150451Z 20012KT 25/16 A2976 RMK A01 T02500158  RH  056%=      5-min Rain = 0
KST3 150452Z 20011KT 25/16 A2976 RMK A01 T02500158  RH  057%=      5-min Rain = 0
KST3 150453Z 20013KT 25/16 A2976 RMK A01 T02500158  RH  057%=      5-min Rain = 0
KST3 150454Z 20014G19KT 25/15 A2976 RMK A01 T02500154  RH  055%=      5-min Rain = 0
KST3 150455Z 20010KT 25/15 A2976 RMK A01 T02510149  RH  053%=      5-min Rain = 0
KST3 150456Z 20009KT 25/15 A2976 RMK A01 T02520152  RH  054%=      5-min Rain = 0
KST3 150457Z 21011KT 25/15 A2976 RMK A01 T02520150  RH  053%=      5-min Rain = 0
KST3 150458Z 21012KT 25/15 A2976 RMK A01 T02510150  RH  054%=      5-min Rain = 0
KST3 150459Z 21011KT 25/15 A2976 RMK A01 T02500150  RH  054%=      5-min Rain = 0

Page generated in 0.1397 seconds.